• Join FlightAware (Why Join?)
  • Login
  • US Flag 
11:48PM EST


 

Airport Tracker/Info


-or-


 

Live Flight TrackerFlight Track Log ✈ ZK-PBG ✈ 11-Apr-2013 ✈ YSSY / SYD - NZAA / AKL

Flight Track Log - Related Links

Times and Time Zones

All times are in EDT time to prevent confusion due to time zone crossing. See the ZK-PBG flight status page for this flight to view local times or setup timezone preferences in your user account.

Time Position Orientation Groundspeed Altitude Reporting Facility
EDT Latitude Longitude Course Direction KTS MPH feet Rate Location/Type
07:51AM -33.9400 151.1720 73° East 8 9  Level FlightAware
07:54AM -33.9400 151.1780 90° East 12 14 150 Level FlightAware
07:54AM -33.9420 151.1790 157° South 15 17 206 Level FlightAware
07:54AM -33.9440 151.1790 180° South 18 21 232 Level FlightAware
07:55AM -33.9470 151.1790 180° South 17 20 244 Level FlightAware
07:56AM -33.9490 151.1800 157° South 22 25 306 Level FlightAware
07:56AM -33.9510 151.1810 157° South 13 15 343 Level FlightAware
07:57AM -33.9510 151.1820 90° East 13 15 400 Level FlightAware
07:57AM -33.9500 151.1850 68° East 18 21 465 Level FlightAware
07:58AM -33.9500 151.1880 90° East 14 16 576 Level FlightAware
07:58AM -33.9510 151.1890 140° Southeast 37 43 758 Level FlightAware
07:59AM -33.9660 151.1930 168° South 1,309 Level FlightAware
07:59AM -33.9874 151.2022 168° South 172 198 1,200 1,680 Climbing Aus ATC (RADAR)
07:59AM -33.9850 151.2000 168° South 174 200 700 400 Descending FlightAware
08:00AM -33.9920 151.2130 123° Southeast 187 215 1,300 2,438 Climbing FlightAware
08:00AM -34.0001 151.2336 123° Southeast 196 226 2,000 1,200 Climbing Aus ATC (RADAR)
08:00AM -34.0050 151.2430 123° Southeast 224 258 1,900 1,737 Descending FlightAware
08:01AM -34.0270 151.2670 138° Southeast 255 293 3,100 2,850 Climbing FlightAware
08:01AM -34.0340 151.2850 115° Southeast 260 299 3,800 3,600 Climbing FlightAware
08:01AM -34.0401 151.3138 115° Southeast 265 305 4,900 3,000 Climbing Aus ATC (RADAR)
08:01AM -34.0440 151.3320 115° Southeast 283 326 5,300 3,375 Climbing FlightAware
08:02AM -34.0506 151.3634 115° Southeast 285 328 6,700 3,360 Climbing Aus ATC (RADAR)
08:02AM -34.0520 151.3720 115° Southeast 293 337 6,700 2,526 Level FlightAware
08:02AM -34.0630 151.4190 106° East 301 346 8,300 3,064 Climbing FlightAware
08:03AM -34.0707 151.4532 106° East 308 354 9,100 1,440 Climbing Aus ATC (RADAR)
08:03AM -34.0730 151.4630 106° East 336 387 8,900 2,400 Descending FlightAware
08:03AM -34.0889 151.5378 106° East 347 399 10,900 2,533 Climbing Aus ATC (RADAR)
08:03AM -34.0910 151.5480 106° East 359 413 10,800 1,674 Descending FlightAware
08:04AM -34.1060 151.6160 105° East 383 441 12,100 2,727 Climbing FlightAware
08:05AM -34.1269 151.7132 105° East 392 451 14,300 2,520 Climbing Aus ATC (RADAR)
08:05AM -34.1280 151.7200 105° East 399 459 14,200 1,875 Descending FlightAware
08:05AM -34.1470 151.8070 105° East 412 474 15,800 2,893 Climbing FlightAware
08:06AM -34.1579 151.8564 105° East 409 471 16,900 2,267 Climbing Aus ATC (RADAR)
08:06AM -34.1690 151.9100 105° East 424 488 17,500 1,826 Climbing FlightAware
08:07AM -34.1890 152.0010 105° East 433 498 19,000 2,100 Climbing FlightAware
08:08AM -34.2140 152.0950 108° East 447 514 20,300 2,047 Climbing FlightAware
08:08AM -34.2450 152.2030 109° East 456 525 21,900 1,906 Climbing FlightAware
08:09AM -34.2730 152.3010 109° East 463 533 23,000 2,063 Climbing FlightAware
08:09AM -34.2944 152.3745 109° East 459 528 24,100 1,500 Climbing Aus ATC (RADAR)
08:10AM -34.3020 152.3990 109° East 475 547 24,000 1,500 Descending FlightAware
08:10AM -34.3176 152.4550 109° East 468 539 24,900 1,600 Climbing Aus ATC (RADAR)
08:10AM -34.3360 152.5170 109° East 485 558 25,200 1,527 Climbing FlightAware
08:11AM -34.3586 152.5959 109° East 478 550 26,300 1,350 Climbing Aus ATC (RADAR)
08:11AM -34.3640 152.6150 109° East 494 568 26,100 1,200 Descending FlightAware
08:11AM -34.3698 152.6351 109° East 482 555 26,600 2,118 Climbing Aus ATC (RADAR)
08:12AM -34.3942 152.7218 109° East 484 557 27,300 818 Climbing Aus ATC (RADAR)
08:12AM -34.3990 152.7390 109° East 501 577 27,200 1,294 Descending FlightAware
08:12AM -34.4290 152.8430 109° East 498 573 28,400 2,182 Climbing FlightAware
08:13AM -34.4537 152.9240 109° East 487 560 29,600 1,500 Climbing Aus ATC (RADAR)
08:13AM -34.4590 152.9450 109° East 499 574 29,400 1,371 Descending FlightAware
08:13AM -34.4799 153.0166 109° East 490 564 30,400 1,500 Climbing Aus ATC (RADAR)
08:14AM -34.4880 153.0480 109° East 499 574 30,400 1,385 Level FlightAware
08:14AM -34.5183 153.1557 109° East 486 559 31,600 1,467 Climbing Aus ATC (RADAR)
08:15AM -34.5240 153.1760 109° East 500 575 31,500 1,273 Descending FlightAware
08:15AM -34.5420 153.2421 109° East 490 564 32,300 150 Climbing Aus ATC (RADAR)
08:15AM -34.5490 153.2710 109° East 501 577 31,600 1,269 Descending FlightAware
08:16AM -34.5817 153.3823 109° East 488 562 33,400 2,000 Climbing Aus ATC (RADAR)
08:16AM -34.5820 153.3870 109° East 504 580 33,100 638 Descending FlightAware
08:17AM -34.6110 153.4910 109° East 506 582 33,900 1,200 Climbing FlightAware
08:17AM -34.6390 153.5910 109° East 508 585 34,500 1,159 Climbing FlightAware
08:18AM -34.6821 153.7465 109° East 496 571 35,600 545 Climbing Aus ATC (RADAR)
08:18AM -34.6780 153.7350 109° East 511 588 35,000 686 Descending FlightAware
08:19AM -34.7085 153.8421 109° East 499 574 36,000 960 Climbing Aus ATC (RADAR)
08:19AM -34.7160 153.8730 109° East 521 600 35,800 577 Descending FlightAware
08:19AM -34.7484 153.9885 109° East 509 586 36,500 600 Climbing Aus ATC (RADAR)
08:20AM -34.7470 153.9840 109° East 526 605 36,200 -300 Descending FlightAware
08:20AM -34.7720 154.0780 109° East 527 606 36,300 1,200 Climbing FlightAware
08:20AM -34.7824 154.1148 109° East 511 588 37,000 1,091 Climbing Aus ATC (RADAR)
08:21AM -34.8203 154.2566 109° East 515 593 37,300 -100 Climbing Aus ATC (RADAR)
08:21AM -34.8200 154.2570 109° East 531 611 36,900  Descending FlightAware
08:22AM -34.8588 154.3915 109° East 512 589 37,300  Climbing Aus ATC (RADAR)
08:22AM -34.8460 154.3540 109° East 531 611 36,900 -571 Descending FlightAware
08:23AM -34.8720 154.4510 108° East 531 611 36,900 400 Level FlightAware
08:23AM -34.9050 154.5694 108° East 515 593 37,300 358 Climbing Aus ATC (RADAR)
08:24AM -34.9340 154.7076 104° East 511 588 37,300  Level Aus ATC (RADAR)
08:25AM -34.9858 154.8449 115° Southeast 511 588 37,300  Level Aus ATC (RADAR)
08:25AM -35.0168 154.9817 106° East 514 592 37,300  Level Aus ATC (RADAR)
08:26AM -35.0457 155.1266 104° East 513 590 37,300  Level Aus ATC (RADAR)
08:27AM -35.0834 155.2689 108° East 515 593 37,300  Level Aus ATC (RADAR)
08:27AM -35.1053 155.3524 108° East 511 588 37,300 -316 Level Aus ATC (RADAR)
08:29AM -35.1123 155.3793 108° East  Level FlightAware Approximate
08:36AM -35.1589 155.5585 108° East  Level FlightAware Approximate
08:37AM -35.1655 155.5841 108° East  Level FlightAware Approximate
08:38AM -35.1721 155.6098 108° East  Level FlightAware Approximate
08:39AM -35.1788 155.6354 108° East  Level FlightAware Approximate
08:40AM -35.1854 155.6610 108° East  Level FlightAware Approximate
08:41AM -35.1920 155.6867 108° East  Level FlightAware Approximate
08:42AM -35.1986 155.7123 107° East  Level FlightAware Approximate
08:43AM -35.2052 155.7379 107° East  Level FlightAware Approximate
08:44AM -35.2118 155.7636 107° East  Level FlightAware Approximate
08:45AM -35.2183 155.7893 107° East  Level FlightAware Approximate
08:46AM -35.2249 155.8149 107° East  Level FlightAware Approximate
08:47AM -35.2315 155.8406 107° East  Level FlightAware Approximate
08:48AM -35.2381 155.8663 107° East  Level FlightAware Approximate
08:49AM -35.2446 155.8919 107° East  Level FlightAware Approximate
08:50AM -35.2512 155.9176 107° East  Level FlightAware Approximate
08:51AM -35.2577 155.9433 107° East  Level FlightAware Approximate
08:52AM -35.2643 155.9690 107° East  Level FlightAware Approximate
08:53AM -35.2708 155.9946 107° East  Level FlightAware Approximate
08:54AM -35.2774 156.0203 107° East  Level FlightAware Approximate
08:55AM -35.2839 156.0460 107° East  Level FlightAware Approximate
08:56AM -35.2904 156.0717 107° East  Level FlightAware Approximate
08:57AM -35.2969 156.0974 107° East  Level FlightAware Approximate
08:58AM -35.3035 156.1232 107° East  Level FlightAware Approximate
08:59AM -35.3100 156.1489 107° East  Level FlightAware Approximate
09:00AM -35.3165 156.1746 107° East  Level FlightAware Approximate
09:01AM -35.3230 156.2003 107° East  Level FlightAware Approximate
09:02AM -35.3294 156.2260 107° East  Level FlightAware Approximate
09:03AM -35.3359 156.2518 107° East  Level FlightAware Approximate
09:04AM -35.3424 156.2775 107° East  Level FlightAware Approximate
09:05AM -35.3489 156.3032 107° East  Level FlightAware Approximate
09:06AM -35.3554 156.3290 107° East  Level FlightAware Approximate
09:07AM -35.3618 156.3547 107° East  Level FlightAware Approximate
09:08AM -35.3683 156.3805 107° East  Level FlightAware Approximate
09:09AM -35.3747 156.4062 107° East  Level FlightAware Approximate
09:10AM -35.3812 156.4320 107° East  Level FlightAware Approximate
09:11AM -35.3876 156.4577 107° East  Level FlightAware Approximate
09:12AM -35.3941 156.4835 107° East  Level FlightAware Approximate
09:13AM -35.4005 156.5093 107° East  Level FlightAware Approximate
09:14AM -35.4069 156.5351 107° East  Level FlightAware Approximate
09:15AM -35.4134 156.5608 107° East  Level FlightAware Approximate
09:16AM -35.4198 156.5866 107° East  Level FlightAware Approximate
09:17AM -35.4262 156.6124 107° East  Level FlightAware Approximate
09:18AM -35.4326 156.6382 107° East  Level FlightAware Approximate
09:19AM -35.4390 156.6640 107° East  Level FlightAware Approximate
09:20AM -35.4454 156.6898 107° East  Level FlightAware Approximate
09:21AM -35.4518 156.7156 107° East  Level FlightAware Approximate
09:22AM -35.4581 156.7414 107° East  Level FlightAware Approximate
09:23AM -35.4645 156.7672 107° East  Level FlightAware Approximate
09:24AM -35.4709 156.7930 107° East  Level FlightAware Approximate
09:25AM -35.4773 156.8189 107° East  Level FlightAware Approximate
09:26AM -35.4836 156.8447 107° East  Level FlightAware Approximate
09:27AM -35.4900 156.8705 107° East  Level FlightAware Approximate
09:28AM -35.4963 156.8963 107° East  Level FlightAware Approximate
09:29AM -35.5027 156.9222 107° East  Level FlightAware Approximate
09:30AM -35.5090 156.9480 107° East  Level FlightAware Approximate
09:31AM -35.5154 156.9739 107° East  Level FlightAware Approximate
09:32AM -35.5217 156.9997 107° East  Level FlightAware Approximate
09:33AM -35.5280 157.0256 107° East  Level FlightAware Approximate
09:34AM -35.5343 157.0514 107° East  Level FlightAware Approximate
09:35AM -35.5406 157.0773 107° East  Level FlightAware Approximate
09:36AM -35.5469 157.1031 107° East  Level FlightAware Approximate
09:37AM -35.5532 157.1290 107° East  Level FlightAware Approximate
09:38AM -35.5595 157.1549 107° East  Level FlightAware Approximate
09:39AM -35.5658 157.1808 107° East  Level FlightAware Approximate
09:40AM -35.5721 157.2066 107° East  Level FlightAware Approximate
09:41AM -35.5784 157.2325 107° East  Level FlightAware Approximate
09:42AM -35.5846 157.2584 107° East  Level FlightAware Approximate
09:43AM -35.5909 157.2843 107° East  Level FlightAware Approximate
09:44AM -35.5972 157.3102 107° East  Level FlightAware Approximate
09:45AM -35.6034 157.3361 107° East  Level FlightAware Approximate
09:46AM -35.6097 157.3620 107° East  Level FlightAware Approximate
09:47AM -35.6159 157.3879 107° East  Level FlightAware Approximate
09:48AM -35.6222 157.4138 107° East  Level FlightAware Approximate
09:49AM -35.6284 157.4398 106° East  Level FlightAware Approximate
09:50AM -35.6346 157.4657 106° East  Level FlightAware Approximate
09:51AM -35.6409 157.4916 106° East  Level FlightAware Approximate
09:52AM -35.6471 157.5175 106° East  Level FlightAware Approximate
09:53AM -35.6533 157.5435 106° East  Level FlightAware Approximate
09:54AM -35.6595 157.5694 106° East  Level FlightAware Approximate
09:55AM -35.6657 157.5954 106° East  Level FlightAware Approximate
09:56AM -35.6719 157.6213 106° East  Level FlightAware Approximate
09:57AM -35.6781 157.6473 106° East  Level FlightAware Approximate
09:58AM -35.6843 157.6732 106° East  Level FlightAware Approximate
09:59AM -35.6904 157.6992 106° East  Level FlightAware Approximate
10:00AM -35.6966 157.7251 106° East  Level FlightAware Approximate
10:01AM -35.7028 157.7511 106° East  Level FlightAware Approximate
10:02AM -35.7089 157.7771 106° East  Level FlightAware Approximate
10:03AM -35.7151 157.8030 106° East  Level FlightAware Approximate
10:04AM -35.7212 157.8290 106° East  Level FlightAware Approximate
10:05AM -35.7274 157.8550 106° East  Level FlightAware Approximate
10:06AM -35.7335 157.8810 106° East  Level FlightAware Approximate
10:07AM -35.7397 157.9070 106° East  Level FlightAware Approximate
10:08AM -35.7458 157.9330 106° East  Level FlightAware Approximate
10:09AM -35.7519 157.9590 106° East  Level FlightAware Approximate
10:10AM -35.7580 157.9850 106° East  Level FlightAware Approximate
10:11AM -35.7641 158.0110 106° East  Level FlightAware Approximate
10:12AM -35.7702 158.0370 106° East  Level FlightAware Approximate
10:13AM -35.7763 158.0630 106° East  Level FlightAware Approximate
10:14AM -35.7808 158.0820 108° East  Level FlightAware Approximate
10:15AM -35.7847 158.1087 108° East  Level Estimated
10:16AM -35.7808 158.0820 108° East  Level FlightAware Approximate
10:17AM -35.7847 158.1087 108° East  Level Estimated
10:18AM -35.7808 158.0820 108° East  Level FlightAware Approximate
10:19AM -35.7847 158.1087 108° East  Level Estimated
10:20AM -35.7808 158.0820 108° East  Level FlightAware Approximate
10:21AM -35.7847 158.1087 108° East  Level Estimated
10:22AM -35.7808 158.0820 108° East  Level FlightAware Approximate
10:23AM -35.7847 158.1087 108° East  Level Estimated
10:23AM -37.0820 174.4860 108° East 157 181 500  Level FlightAware
10:24AM -35.7808 158.0820 108° East  Level FlightAware Approximate
10:24AM -37.0230 174.7460 74° East 148 170 100  Level FlightAware
10:24AM -37.0180 174.7660 73° East 148 170 100  Level FlightAware
10:27AM -37.0081 174.7917 272° West  Level Estimated
10:28AM -37.0081 174.7917 272° West  Level Estimated
10:29AM -37.0081 174.7917 272° West  Level Estimated
10:30AM -37.0081 174.7917 272° West  Level Estimated
10:31AM -37.0081 174.7917 272° West  Level Estimated
10:32AM -37.0081 174.7917 272° West  Level Estimated
10:33AM -37.0081 174.7917 272° West  Level Estimated
10:34AM -37.0081 174.7917 272° West  Level Estimated
10:35AM -37.0081 174.7917 272° West  Level Estimated
10:36AM -37.0081 174.7917 272° West  Level Estimated
10:37AM -37.0081 174.7917 272° West  Level Estimated
10:38AM -37.0081 174.7917 272° West  Level Estimated
10:39AM -37.0081 174.7917 272° West  Level Estimated
10:40AM -37.0081 174.7917 272° West  Level Estimated
10:41AM -37.0081 174.7917 272° West  Level Estimated
10:42AM -37.0081 174.7917 272° West  Level Estimated
10:43AM -37.0081 174.7917 272° West  Level Estimated
10:44AM -37.0081 174.7917 272° West  Level Estimated
10:45AM -37.0081 174.7917 272° West  Level Estimated
10:46AM -37.0081 174.7917 272° West  Level Estimated
10:47AM -37.0081 174.7917 272° West  Level Estimated
10:48AM -37.0081 174.7917 272° West  Level Estimated
10:49AM -37.0081 174.7917 272° West  Level Estimated
10:50AM -37.0081 174.7917 272° West  Level Estimated
10:51AM -37.0081 174.7917 272° West  Level Estimated
10:52AM -37.0081 174.7917 272° West  Level Estimated
10:53AM -37.0081 174.7917 272° West  Level Estimated
10:54AM -37.0081 174.7917 272° West  Level Estimated
10:55AM -37.0081 174.7917 272° West  Level Estimated
10:56AM -37.0081 174.7917 272° West  Level Estimated
10:57AM -37.0081 174.7917 272° West  Level Estimated
10:58AM -37.0081 174.7917 272° West  Level Estimated
10:59AM -37.0081 174.7917 272° West  Level Estimated
11:00AM -37.0081 174.7917 272° West  Level Estimated
11:01AM -37.0081 174.7917 272° West  Level Estimated
11:02AM -37.0081 174.7917 272° West  Level Estimated
11:03AM -37.0081 174.7917 272° West  Level Estimated
11:04AM -37.0081 174.7917 272° West  Level Estimated
11:05AM -37.0081 174.7917 272° West  Level Estimated
11:06AM -37.0081 174.7917 272° West  Level Estimated
11:07AM -37.0081 174.7917 272° West  Level Estimated
11:08AM -37.0081 174.7917 272° West  Level Estimated
11:09AM -37.0081 174.7917 272° West  Level Estimated
11:10AM -37.0081 174.7917 272° West  Level Estimated
11:11AM -37.0081 174.7917 272° West  Level Estimated
11:12AM -37.0081 174.7917 272° West  Level Estimated
11:13AM -37.0081 174.7917 272° West  Level Estimated
11:14AM -37.0081 174.7917 272° West  Level Estimated
11:15AM -37.0081 174.7917 272° West  Level Estimated
11:16AM -37.0081 174.7917 272° West  Level Estimated
11:17AM -37.0081 174.7917 272° West  Level Estimated
11:18AM -37.0081 174.7917 272° West  Level Estimated
11:19AM -37.0081 174.7917 272° West  Level Estimated
11:20AM -37.0081 174.7917 272° West  Level Estimated
11:21AM -37.0081 174.7917 272° West  Level Estimated
11:22AM -37.0081 174.7917 272° West  Level Estimated
11:23AM -37.0081 174.7917 272° West  Level Estimated
11:24AM -37.0081 174.7917 272° West  Level Estimated
11:25AM -37.0081 174.7917 272° West  Level Estimated
11:26AM -37.0081 174.7917 272° West  Level Estimated
11:27AM -37.0081 174.7917 272° West  Level Estimated
11:28AM -37.0081 174.7917 272° West  Level Estimated
11:29AM -37.0081 174.7917 272° West  Level Estimated
11:30AM -37.0081 174.7917 272° West  Level Estimated
11:31AM -37.0081 174.7917 272° West  Level Estimated
11:32AM -37.0081 174.7917 272° West  Level Estimated
11:33AM -37.0081 174.7917 272° West  Level Estimated
11:34AM -37.0081 174.7917 272° West  Level Estimated
11:35AM -37.0081 174.7917 272° West  Level Estimated
11:36AM -37.0081 174.7917 272° West  Level Estimated
11:37AM -37.0081 174.7917 272° West  Level Estimated
11:38AM -37.0081 174.7917 272° West  Level Estimated
11:39AM -37.0081 174.7917 272° West  Level Estimated
11:40AM -37.0081 174.7917 272° West  Level Estimated
11:41AM -37.0081 174.7917 272° West  Level Estimated
11:42AM -37.0081 174.7917 272° West  Level Estimated
11:43AM -37.0081 174.7917 272° West  Level Estimated
11:44AM -37.0081 174.7917 272° West  Level Estimated
11:45AM -37.0081 174.7917 272° West  Level Estimated
11:46AM -37.0081 174.7917 272° West  Level Estimated
11:47AM -37.0081 174.7917 272° West  Level Estimated
11:48AM -37.0081 174.7917 272° West  Level Estimated
11:49AM -37.0081 174.7917 272° West  Level Estimated
11:50AM -37.0081 174.7917 272° West  Level Estimated
11:51AM -37.0081 174.7917 272° West  Level Estimated
11:52AM -37.0081 174.7917 272° West  Level Estimated
11:53AM -37.0081 174.7917 272° West  Level Estimated
11:54AM -37.0081 174.7917 272° West  Level Estimated
11:55AM -37.0081 174.7917 272° West  Level Estimated
11:56AM -37.0081 174.7917 272° West  Level Estimated
11:57AM -37.0081 174.7917 272° West  Level Estimated
11:58AM -37.0081 174.7917 272° West  Level Estimated
11:59AM -37.0081 174.7917 272° West  Level Estimated
12:00PM -37.0081 174.7917 272° West  Level Estimated
12:01PM -37.0081 174.7917 272° West  Level Estimated
12:02PM -37.0081 174.7917 272° West  Level Estimated
12:03PM -37.0081 174.7917 272° West  Level Estimated
12:04PM -37.0081 174.7917 272° West  Level Estimated
12:05PM -37.0081 174.7917 272° West  Level Estimated
12:06PM -37.0081 174.7917 272° West  Level Estimated
12:07PM -37.0081 174.7917 272° West  Level Estimated
12:08PM -37.0081 174.7917 272° West  Level Estimated
12:09PM -37.0081 174.7917 272° West  Level Estimated
12:10PM -37.0081 174.7917 272° West  Level Estimated
12:11PM -37.0081 174.7917 272° West  Level Estimated
12:12PM -37.0081 174.7917 272° West  Level Estimated
12:13PM -37.0081 174.7917 272° West  Level Estimated
12:14PM -37.0081 174.7917 272° West  Level Estimated
12:15PM -37.0081 174.7917 272° West  Level Estimated
12:16PM -37.0081 174.7917 272° West  Level Estimated
12:17PM -37.0081 174.7917 272° West  Level Estimated
12:18PM -37.0081 174.7917 272° West  Level Estimated
12:19PM -37.0081 174.7917 272° West  Level Estimated
12:20PM -37.0081 174.7917 272° West  Level Estimated
12:21PM -37.0081 174.7917 272° West  Level Estimated
12:22PM -37.0081 174.7917 272° West  Level Estimated
12:23PM -37.0081 174.7917 272° West  Level Estimated
12:24PM -37.0081 174.7917 272° West  Level Estimated
12:25PM -37.0081 174.7917 272° West  Level Estimated
12:26PM -37.0081 174.7917 272° West  Level Estimated
12:27PM -37.0081 174.7917 272° West  Level Estimated
12:28PM -37.0081 174.7917 272° West  Level Estimated
12:29PM -37.0081 174.7917 272° West  Level Estimated
12:30PM -37.0081 174.7917 272° West  Level Estimated
12:31PM -37.0081 174.7917 272° West  Level Estimated
12:32PM -37.0081 174.7917 272° West  Level Estimated
12:33PM -37.0081 174.7917 272° West  Level Estimated
12:34PM -37.0081 174.7917 272° West  Level Estimated
12:35PM -37.0081 174.7917 272° West  Level Estimated
12:36PM -37.0081 174.7917 272° West  Level Estimated
12:37PM -37.0081 174.7917 272° West  Level Estimated
12:38PM -37.0081 174.7917 272° West  Level Estimated
12:39PM -37.0081 174.7917 272° West  Level Estimated
12:40PM -37.0081 174.7917 272° West  Level Estimated
12:41PM -37.0081 174.7917 272° West  Level Estimated
12:42PM -37.0081 174.7917 272° West  Level Estimated
12:43PM -37.0081 174.7917 272° West  Level Estimated
12:44PM -37.0081 174.7917 272° West  Level Estimated
12:45PM -37.0081 174.7917 272° West  Level Estimated
12:46PM -37.0081 174.7917 272° West  Level Estimated
12:47PM -37.0081 174.7917 272° West  Level Estimated
12:48PM -37.0081 174.7917 272° West  Level Estimated
12:49PM -37.0081 174.7917 272° West  Level Estimated
12:50PM -37.0081 174.7917 272° West  Level Estimated
12:51PM -37.0081 174.7917 272° West  Level Estimated
12:52PM -37.0081 174.7917 272° West  Level Estimated
12:53PM -37.0081 174.7917 272° West  Level Estimated
12:54PM -37.0081 174.7917 272° West  Level Estimated
12:55PM -37.0081 174.7917 272° West  Level Estimated
12:56PM -37.0081 174.7917 272° West  Level Estimated
12:57PM -37.0081 174.7917 272° West  Level Estimated
12:58PM -37.0081 174.7917 272° West  Level Estimated
12:59PM -37.0081 174.7917 272° West  Level Estimated
01:00PM -37.0081 174.7917 272° West  Level Estimated
01:01PM -37.0081 174.7917 272° West  Level Estimated
01:02PM -37.0081 174.7917 272° West  Level Estimated
01:03PM -37.0081 174.7917 272° West  Level Estimated
01:04PM -37.0081 174.7917 272° West  Level Estimated
01:05PM -37.0081 174.7917 272° West  Level Estimated
01:06PM -37.0081 174.7917 272° West  Level Estimated
01:07PM -37.0081 174.7917 272° West  Level Estimated
01:08PM -37.0081 174.7917 272° West  Level Estimated
01:09PM -37.0081 174.7917 272° West  Level Estimated
01:10PM -37.0081 174.7917 272° West  Level Estimated
01:11PM -37.0081 174.7917 272° West  Level Estimated
01:12PM -37.0081 174.7917 272° West  Level Estimated
01:13PM -37.0081 174.7917 272° West  Level Estimated
01:14PM -37.0081 174.7917 272° West  Level Estimated
01:15PM -37.0081 174.7917 272° West  Level Estimated
01:16PM -37.0081 174.7917 272° West  Level Estimated
01:17PM -37.0081 174.7917 272° West  Level Estimated
01:18PM -37.0081 174.7917 272° West  Level Estimated
01:19PM -37.0081 174.7917 272° West  Level Estimated
01:20PM -37.0081 174.7917 272° West  Level Estimated
01:21PM -37.0081 174.7917 272° West  Level Estimated
01:22PM -37.0081 174.7917 272° West  Level Estimated
01:23PM -37.0081 174.7917 272° West  Level Estimated
01:24PM -37.0081 174.7917 272° West  Level Estimated
01:25PM -37.0081 174.7917 272° West  Level Estimated
01:26PM -37.0081 174.7917 272° West  Level Estimated
01:27PM -37.0081 174.7917 272° West  Level Estimated
01:28PM -37.0081 174.7917 272° West  Level Estimated
01:29PM -37.0081 174.7917 272° West  Level Estimated
01:30PM -37.0081 174.7917 272° West  Level Estimated
01:31PM -37.0081 174.7917 272° West  Level Estimated
01:32PM -37.0081 174.7917 272° West  Level Estimated
01:33PM -37.0081 174.7917 272° West  Level Estimated
01:34PM -37.0081 174.7917 272° West  Level Estimated
01:35PM -37.0081 174.7917 272° West  Level Estimated
01:36PM -37.0081 174.7917 272° West  Level Estimated
01:37PM -37.0081 174.7917 272° West  Level Estimated
01:38PM -37.0081 174.7917 272° West  Level Estimated
01:39PM -37.0081 174.7917 272° West  Level Estimated
01:40PM -37.0081 174.7917 272° West  Level Estimated
01:41PM -37.0081 174.7917 272° West  Level Estimated
01:42PM -37.0081 174.7917 272° West  Level Estimated
01:43PM -37.0081 174.7917 272° West  Level Estimated
01:44PM -37.0081 174.7917 272° West  Level Estimated
01:45PM -37.0081 174.7917 272° West  Level Estimated
01:46PM -37.0081 174.7917 272° West  Level Estimated
01:47PM -37.0081 174.7917 272° West  Level Estimated
01:48PM -37.0081 174.7917 272° West  Level Estimated
01:49PM -37.0081 174.7917 272° West  Level Estimated
01:50PM -37.0081 174.7917 272° West  Level Estimated
01:51PM -37.0081 174.7917 272° West  Level Estimated
01:52PM -37.0081 174.7917 272° West  Level Estimated
01:53PM -37.0081 174.7917 272° West  Level Estimated
01:54PM -37.0081 174.7917 272° West  Level Estimated
01:55PM -37.0081 174.7917 272° West  Level Estimated
01:56PM -37.0081 174.7917 272° West  Level Estimated
01:57PM -37.0081 174.7917 272° West  Level Estimated
01:58PM -37.0081 174.7917 272° West  Level Estimated
01:59PM -37.0081 174.7917 272° West  Level Estimated
02:00PM -37.0081 174.7917 272° West  Level Estimated
02:01PM -37.0081 174.7917 272° West  Level Estimated
02:02PM -37.0081 174.7917 272° West  Level Estimated
02:03PM -37.0081 174.7917 272° West  Level Estimated
02:04PM -37.0081 174.7917 272° West  Level Estimated
02:05PM -37.0081 174.7917 272° West  Level Estimated
02:06PM -37.0081 174.7917 272° West  Level Estimated
02:07PM -37.0081 174.7917 272° West  Level Estimated
02:08PM -37.0081 174.7917 272° West  Level Estimated
02:09PM -37.0081 174.7917 272° West  Level Estimated
02:10PM -37.0081 174.7917 272° West  Level Estimated
02:11PM -37.0081 174.7917 272° West  Level Estimated
02:12PM -37.0081 174.7917 272° West  Level Estimated
02:13PM -37.0081 174.7917 272° West  Level Estimated
02:14PM -37.0081 174.7917 272° West  Level Estimated
02:15PM -37.0081 174.7917 272° West  Level Estimated
02:16PM -37.0081 174.7917 272° West  Level Estimated
02:17PM -37.0081 174.7917 272° West  Level Estimated
02:18PM -37.0081 174.7917 272° West  Level Estimated
02:19PM -37.0081 174.7917 272° West  Level Estimated
02:20PM -37.0081 174.7917 272° West  Level Estimated
02:21PM -37.0081 174.7917 272° West  Level Estimated
02:22PM -37.0081 174.7917 272° West  Level Estimated
02:23PM -37.0081 174.7917 272° West  Level Estimated
02:24PM -37.0081 174.7917 272° West  Level Estimated
02:25PM -37.0081 174.7917 272° West  Level Estimated
02:26PM -37.0081 174.7917 272° West  Level Estimated
02:27PM -37.0081 174.7917 272° West  Level Estimated
02:28PM -37.0081 174.7917 272° West  Level Estimated
02:29PM -37.0081 174.7917 272° West  Level Estimated
02:30PM -37.0081 174.7917 272° West  Level Estimated
02:31PM -37.0081 174.7917 272° West  Level Estimated
02:32PM -37.0081 174.7917 272° West  Level Estimated
02:33PM -37.0081 174.7917 272° West  Level Estimated
02:34PM -37.0081 174.7917 272° West  Level Estimated
02:35PM -37.0081 174.7917 272° West  Level Estimated
02:36PM -37.0081 174.7917 272° West  Level Estimated
02:37PM -37.0081 174.7917 272° West  Level Estimated
02:38PM -37.0081 174.7917 272° West  Level Estimated
02:39PM -37.0081 174.7917 272° West  Level Estimated
02:40PM -37.0081 174.7917 272° West  Level Estimated
02:41PM -37.0081 174.7917 272° West  Level Estimated
02:42PM -37.0081 174.7917 272° West  Level Estimated
02:43PM -37.0081 174.7917 272° West  Level Estimated
02:44PM -37.0081 174.7917 272° West  Level Estimated
02:45PM -37.0081 174.7917 272° West  Level Estimated
02:46PM -37.0081 174.7917 272° West  Level Estimated
02:47PM -37.0081 174.7917 272° West  Level Estimated
02:48PM -37.0081 174.7917 272° West  Level Estimated
02:49PM -37.0081 174.7917 272° West  Level Estimated
02:50PM -37.0081 174.7917 272° West  Level Estimated
02:51PM -37.0081 174.7917 272° West  Level Estimated
02:52PM -37.0081 174.7917 272° West  Level Estimated
02:53PM -37.0081 174.7917 272° West  Level Estimated
02:54PM -37.0081 174.7917 272° West  Level Estimated
02:55PM -37.0081 174.7917 272° West  Level Estimated
02:56PM -37.0081 174.7917 272° West  Level Estimated
02:57PM -37.0081 174.7917 272° West  Level Estimated
02:58PM -37.0081 174.7917 272° West  Level Estimated
02:59PM -37.0081 174.7917 272° West  Level Estimated
03:00PM -37.0081 174.7917 272° West  Level Estimated
03:01PM -37.0081 174.7917 272° West  Level Estimated
03:02PM -37.0081 174.7917 272° West  Level Estimated
03:03PM -37.0081 174.7917 272° West  Level Estimated
03:04PM -37.0081 174.7917 272° West  Level Estimated
03:05PM -37.0081 174.7917 272° West  Level Estimated
03:06PM -37.0081 174.7917 272° West  Level Estimated
03:07PM -37.0081 174.7917 272° West  Level Estimated
03:08PM -37.0081 174.7917 272° West  Level Estimated
03:09PM -37.0081 174.7917 272° West  Level Estimated
03:10PM -37.0081 174.7917 272° West  Level Estimated
03:11PM -37.0081 174.7917 272° West  Level Estimated
03:12PM -37.0081 174.7917 272° West  Level Estimated
03:13PM -37.0081 174.7917 272° West  Level Estimated
03:14PM -37.0081 174.7917 272° West  Level Estimated
03:15PM -37.0081 174.7917 272° West  Level Estimated
03:16PM -37.0081 174.7917 272° West  Level Estimated
03:17PM -37.0081 174.7917 272° West  Level Estimated
03:18PM -37.0081 174.7917 272° West  Level Estimated
03:19PM -37.0081 174.7917 272° West  Level Estimated
03:20PM -37.0081 174.7917 272° West  Level Estimated
03:21PM -37.0081 174.7917 272° West  Level Estimated
03:22PM -37.0081 174.7917 272° West  Level Estimated
03:23PM -37.0081 174.7917 272° West  Level Estimated
03:24PM -37.0081 174.7917 272° West  Level Estimated
03:25PM -37.0081 174.7917 272° West  Level Estimated
03:26PM -37.0081 174.7917 272° West  Level Estimated
03:27PM -37.0081 174.7917 272° West  Level Estimated
03:28PM -37.0081 174.7917 272° West  Level Estimated
03:29PM -37.0081 174.7917 272° West  Level Estimated
03:30PM -37.0081 174.7917 272° West  Level Estimated
03:31PM -37.0081 174.7917 272° West  Level Estimated
03:32PM -37.0081 174.7917 272° West  Level Estimated
03:33PM -37.0081 174.7917 272° West  Level Estimated
03:34PM -37.0081 174.7917 272° West  Level Estimated
03:35PM -37.0081 174.7917 272° West  Level Estimated
03:36PM -37.0081 174.7917 272° West  Level Estimated
03:37PM -37.0081 174.7917 272° West  Level Estimated
03:38PM -37.0081 174.7917 272° West  Level Estimated
03:39PM -37.0081 174.7917 272° West  Level Estimated
03:40PM -37.0081 174.7917 272° West  Level Estimated
03:41PM -37.0081 174.7917 272° West  Level Estimated
03:42PM -37.0081 174.7917 272° West  Level Estimated
03:43PM -37.0081 174.7917 272° West  Level Estimated
03:44PM -37.0081 174.7917 272° West  Level Estimated
03:45PM -37.0081 174.7917 272° West  Level Estimated
03:46PM -37.0081 174.7917 272° West  Level Estimated
03:47PM -37.0081 174.7917 272° West  Level Estimated
03:48PM -37.0081 174.7917 272° West  Level Estimated
03:49PM -37.0081 174.7917 272° West  Level Estimated
03:50PM -37.0081 174.7917 272° West  Level Estimated
03:51PM -37.0081 174.7917 272° West  Level Estimated
03:52PM -37.0081 174.7917 272° West  Level Estimated
03:53PM -37.0081 174.7917 272° West  Level Estimated
03:54PM -37.0081 174.7917 272° West  Level Estimated
03:55PM -37.0081 174.7917 272° West  Level Estimated
03:56PM -37.0081 174.7917 272° West  Level Estimated
03:57PM -37.0081 174.7917 272° West  Level Estimated
03:58PM -37.0081 174.7917 272° West  Level Estimated
03:59PM -37.0081 174.7917 272° West  Level Estimated
04:00PM -37.0081 174.7917 272° West  Level Estimated
04:01PM -37.0081 174.7917 272° West  Level Estimated
04:02PM -37.0081 174.7917 272° West  Level Estimated
04:03PM -37.0081 174.7917 272° West  Level Estimated
04:04PM -37.0081 174.7917 272° West  Level Estimated
04:05PM -37.0081 174.7917 272° West  Level Estimated
04:06PM -37.0081 174.7917 272° West  Level Estimated
04:07PM -37.0081 174.7917 272° West  Level Estimated
04:08PM -37.0081 174.7917 272° West  Level Estimated
04:09PM -37.0081 174.7917 272° West  Level Estimated
04:10PM -37.0081 174.7917 272° West  Level Estimated
04:11PM -37.0081 174.7917 272° West  Level Estimated
04:12PM -37.0081 174.7917 272° West  Level Estimated
04:13PM -37.0081 174.7917 272° West  Level Estimated
04:14PM -37.0081 174.7917 272° West  Level Estimated
04:15PM -37.0081 174.7917 272° West  Level Estimated
04:16PM -37.0081 174.7917 272° West  Level Estimated
04:17PM -37.0081 174.7917 272° West  Level Estimated
04:18PM -37.0081 174.7917 272° West  Level Estimated
04:19PM -37.0081 174.7917 272° West  Level Estimated
04:20PM -37.0081 174.7917 272° West  Level Estimated
04:21PM -37.0081 174.7917 272° West  Level Estimated
04:22PM -37.0081 174.7917 272° West  Level Estimated
04:23PM -37.0081 174.7917 272° West  Level Estimated
04:24PM -37.0081 174.7917 272° West  Level Estimated
04:25PM -37.0081 174.7917 272° West  Level Estimated
04:26PM -37.0081 174.7917 272° West  Level Estimated
04:27PM -37.0081 174.7917 272° West  Level Estimated
04:28PM -37.0081 174.7917 272° West  Level Estimated
04:29PM -37.0081 174.7917 272° West  Level Estimated
04:30PM -37.0081 174.7917 272° West  Level Estimated
04:31PM -37.0081 174.7917 272° West  Level Estimated
04:32PM -37.0081 174.7917 272° West  Level Estimated
04:33PM -37.0081 174.7917 272° West  Level Estimated
04:34PM -37.0081 174.7917 272° West  Level Estimated
04:35PM -37.0081 174.7917 272° West  Level Estimated
04:36PM -37.0081 174.7917 272° West  Level Estimated
04:37PM -37.0081 174.7917 272° West  Level Estimated
04:38PM -37.0081 174.7917 272° West  Level Estimated
04:39PM -37.0081 174.7917 272° West  Level Estimated
04:40PM -37.0081 174.7917 272° West  Level Estimated
04:41PM -37.0081 174.7917 272° West  Level Estimated
04:42PM -37.0081 174.7917 272° West  Level Estimated
04:43PM -37.0081 174.7917 272° West  Level Estimated
04:44PM -37.0081 174.7917 272° West  Level Estimated
04:45PM -37.0081 174.7917 272° West  Level Estimated
04:46PM -37.0081 174.7917 272° West  Level Estimated
04:47PM -37.0081 174.7917 272° West  Level Estimated
04:48PM -37.0081 174.7917 272° West  Level Estimated
04:49PM -37.0081 174.7917 272° West  Level Estimated
04:50PM -37.0081 174.7917 272° West  Level Estimated
04:51PM -37.0081 174.7917 272° West  Level Estimated
04:52PM -37.0081 174.7917 272° West  Level Estimated
04:53PM -37.0081 174.7917 272° West  Level Estimated
04:54PM -37.0081 174.7917 272° West  Level Estimated
04:55PM -37.0081 174.7917 272° West  Level Estimated
04:56PM -37.0081 174.7917 272° West  Level Estimated
04:57PM -37.0081 174.7917 272° West  Level Estimated
04:58PM -37.0081 174.7917 272° West  Level Estimated
04:59PM -37.0081 174.7917 272° West  Level Estimated
05:00PM -37.0081 174.7917 272° West  Level Estimated
05:01PM -37.0081 174.7917 272° West  Level Estimated
05:02PM -37.0081 174.7917 272° West  Level Estimated
05:03PM -37.0081 174.7917 272° West  Level Estimated
05:04PM -37.0081 174.7917 272° West  Level Estimated
05:05PM -37.0081 174.7917 272° West  Level Estimated
05:06PM -37.0081 174.7917 272° West  Level Estimated
05:07PM -37.0081 174.7917 272° West  Level Estimated
05:08PM -37.0081 174.7917 272° West  Level Estimated
05:09PM -37.0081 174.7917 272° West  Level Estimated
05:10PM -37.0081 174.7917 272° West  Level Estimated
05:11PM -37.0081 174.7917 272° West  Level Estimated
05:12PM -37.0081 174.7917 272° West  Level Estimated
05:13PM -37.0081 174.7917 272° West  Level Estimated
05:14PM -37.0081 174.7917 272° West  Level Estimated
05:15PM -37.0081 174.7917 272° West  Level Estimated
05:16PM -37.0081 174.7917 272° West  Level Estimated
05:17PM -37.0081 174.7917 272° West  Level Estimated
05:18PM -37.0081 174.7917 272° West  Level Estimated
05:19PM -37.0081 174.7917 272° West  Level Estimated
05:20PM -37.0081 174.7917 272° West  Level Estimated
05:21PM -37.0081 174.7917 272° West  Level Estimated
05:22PM -37.0081 174.7917 272° West  Level Estimated
05:23PM -37.0081 174.7917 272° West  Level Estimated
05:24PM -37.0081 174.7917 272° West  Level Estimated
05:25PM -37.0081 174.7917 272° West  Level Estimated
05:26PM -37.0081 174.7917 272° West  Level Estimated
05:27PM -37.0081 174.7917 272° West  Level Estimated
05:28PM -37.0081 174.7917 272° West  Level Estimated
05:29PM -37.0081 174.7917 272° West  Level Estimated
05:30PM -37.0081 174.7917 272° West  Level Estimated
05:31PM -37.0081 174.7917 272° West  Level Estimated
05:32PM -37.0081 174.7917 272° West  Level Estimated
05:33PM -37.0081 174.7917 272° West  Level Estimated
05:34PM -37.0081 174.7917 272° West  Level Estimated
05:35PM -37.0081 174.7917 272° West  Level Estimated
05:36PM -37.0081 174.7917 272° West  Level Estimated
05:37PM -37.0081 174.7917 272° West  Level Estimated
05:38PM -37.0081 174.7917 272° West  Level Estimated
05:39PM -37.0081 174.7917 272° West  Level Estimated
05:40PM -37.0081 174.7917 272° West  Level Estimated
05:41PM -37.0081 174.7917 272° West  Level Estimated
05:42PM -37.0081 174.7917 272° West  Level Estimated
05:43PM -37.0081 174.7917 272° West  Level Estimated
05:44PM -37.0081 174.7917 272° West  Level Estimated
05:45PM -37.0081 174.7917 272° West  Level Estimated
05:46PM -37.0081 174.7917 272° West  Level Estimated
05:47PM -37.0081 174.7917 272° West  Level Estimated
05:48PM -37.0081 174.7917 272° West  Level Estimated
05:49PM -37.0081 174.7917 272° West  Level Estimated
05:50PM -37.0081 174.7917 272° West  Level Estimated
05:51PM -37.0081 174.7917 272° West  Level Estimated
05:52PM -37.0081 174.7917 272° West  Level Estimated
05:53PM -37.0081 174.7917 272° West  Level Estimated
05:54PM -37.0081 174.7917 272° West  Level Estimated
05:55PM -37.0081 174.7917 272° West  Level Estimated
05:56PM -37.0081 174.7917 272° West  Level Estimated
05:57PM -37.0081 174.7917 272° West  Level Estimated
05:58PM -37.0081 174.7917 272° West  Level Estimated
05:59PM -37.0081 174.7917 272° West  Level Estimated
06:00PM -37.0081 174.7917 272° West  Level Estimated
06:01PM -37.0081 174.7917 272° West  Level Estimated
06:02PM -37.0081 174.7917 272° West  Level Estimated
06:03PM -37.0081 174.7917 272° West  Level Estimated
06:04PM -37.0081 174.7917 272° West  Level Estimated
06:05PM -37.0081 174.7917 272° West  Level Estimated
06:06PM -37.0081 174.7917 272° West  Level Estimated
06:07PM -37.0081 174.7917 272° West  Level Estimated
06:08PM -37.0081 174.7917 272° West  Level Estimated
06:09PM -37.0081 174.7917 272° West  Level Estimated
06:10PM -37.0081 174.7917 272° West  Level Estimated
06:11PM -37.0081 174.7917 272° West  Level Estimated
06:12PM -37.0081 174.7917 272° West  Level Estimated
06:13PM -37.0081 174.7917 272° West  Level Estimated
06:14PM -37.0081 174.7917 272° West  Level Estimated
06:15PM -37.0081 174.7917 272° West  Level Estimated
06:16PM -37.0081 174.7917 272° West  Level Estimated
06:17PM -37.0081 174.7917 272° West  Level Estimated
06:18PM -37.0081 174.7917 272° West  Level Estimated
06:19PM -37.0081 174.7917 272° West  Level Estimated
06:20PM -37.0081 174.7917 272° West  Level Estimated
06:21PM -37.0081 174.7917 272° West  Level Estimated
06:22PM -37.0081 174.7917 272° West  Level Estimated
06:23PM -37.0081 174.7917 272° West  Level Estimated
06:24PM -37.0081 174.7917 272° West  Level Estimated
06:25PM -37.0081 174.7917 272° West  Level Estimated
06:26PM -37.0081 174.7917 272° West  Level Estimated
06:27PM -37.0081 174.7917 272° West  Level Estimated
06:28PM -37.0081 174.7917 272° West  Level Estimated
06:29PM -37.0081 174.7917 272° West  Level Estimated
06:30PM -37.0081 174.7917 272° West  Level Estimated
06:31PM -37.0081 174.7917 272° West  Level Estimated
06:32PM -37.0081 174.7917 272° West  Level Estimated
06:33PM -37.0081 174.7917 272° West  Level Estimated
06:34PM -37.0081 174.7917 272° West  Level Estimated
06:35PM -37.0081 174.7917 272° West  Level Estimated
06:36PM -37.0081 174.7917 272° West  Level Estimated
06:37PM -37.0081 174.7917 272° West  Level Estimated
06:38PM -37.0081 174.7917 272° West  Level Estimated
06:39PM -37.0081 174.7917 272° West  Level Estimated
06:40PM -37.0081 174.7917 272° West  Level Estimated
06:41PM -37.0081 174.7917 272° West  Level Estimated
06:42PM -37.0081 174.7917 272° West  Level Estimated
06:43PM -37.0081 174.7917 272° West  Level Estimated
06:44PM -37.0081 174.7917 272° West  Level Estimated
06:45PM -37.0081 174.7917 272° West  Level Estimated
06:46PM -37.0081 174.7917 272° West  Level Estimated
06:47PM -37.0081 174.7917 272° West  Level Estimated
06:48PM -37.0081 174.7917 272° West  Level Estimated
06:49PM -37.0081 174.7917 272° West  Level Estimated
06:50PM -37.0081 174.7917 272° West  Level Estimated
06:51PM -37.0081 174.7917 272° West  Level Estimated
06:52PM -37.0081 174.7917 272° West  Level Estimated
06:53PM -37.0081 174.7917 272° West  Level Estimated
06:54PM -37.0081 174.7917 272° West  Level Estimated
06:55PM -37.0081 174.7917 272° West  Level Estimated
06:56PM -37.0081 174.7917 272° West  Level Estimated
06:57PM -37.0081 174.7917 272° West  Level Estimated
06:58PM -37.0081 174.7917 272° West  Level Estimated
06:59PM -37.0081 174.7917 272° West  Level Estimated
07:00PM -37.0081 174.7917 272° West  Level Estimated
07:01PM -37.0081 174.7917 272° West  Level Estimated
07:02PM -37.0081 174.7917 272° West  Level Estimated
07:03PM -37.0081 174.7917 272° West  Level Estimated
07:04PM -37.0081 174.7917 272° West  Level Estimated
07:05PM -37.0081 174.7917 272° West  Level Estimated
07:06PM -37.0081 174.7917 272° West  Level Estimated
07:07PM -37.0081 174.7917 272° West  Level Estimated
07:08PM -37.0081 174.7917 272° West  Level Estimated
07:09PM -37.0081 174.7917 272° West  Level Estimated
07:10PM -37.0081 174.7917 272° West  Level Estimated
07:11PM -37.0081 174.7917 272° West  Level Estimated
07:12PM -37.0081 174.7917 272° West  Level Estimated
07:13PM -37.0081 174.7917 272° West  Level Estimated
07:14PM -37.0081 174.7917 272° West  Level Estimated
07:15PM -37.0081 174.7917 272° West  Level Estimated
07:16PM -37.0081 174.7917 272° West  Level Estimated
07:17PM -37.0081 174.7917 272° West  Level Estimated
07:18PM -37.0081 174.7917 272° West  Level Estimated
07:19PM -37.0081 174.7917 272° West  Level Estimated
07:20PM -37.0081 174.7917 272° West  Level Estimated
07:21PM -37.0081 174.7917 272° West  Level Estimated
07:22PM -37.0081 174.7917 272° West  Level Estimated
07:23PM -37.0081 174.7917 272° West  Level Estimated
07:24PM -37.0081 174.7917 272° West  Level Estimated
07:25PM -37.0081 174.7917 272° West  Level Estimated
07:26PM -37.0081 174.7917 272° West  Level Estimated
07:27PM -37.0081 174.7917 272° West  Level Estimated
07:28PM -37.0081 174.7917 272° West  Level Estimated
07:29PM -37.0081 174.7917 272° West  Level Estimated
07:30PM -37.0081 174.7917 272° West  Level Estimated
07:31PM -37.0081 174.7917 272° West  Level Estimated
07:32PM -37.0081 174.7917 272° West  Level Estimated
07:33PM -37.0081 174.7917 272° West  Level Estimated
07:34PM -37.0081 174.7917 272° West  Level Estimated
07:35PM -37.0081 174.7917 272° West  Level Estimated
07:36PM -37.0081 174.7917 272° West  Level Estimated
07:37PM -37.0081 174.7917 272° West  Level Estimated
07:38PM -37.0081 174.7917 272° West  Level Estimated
07:39PM -37.0081 174.7917 272° West  Level Estimated
07:40PM -37.0081 174.7917 272° West  Level Estimated
07:41PM -37.0081 174.7917 272° West  Level Estimated
07:42PM -37.0081 174.7917 272° West  Level Estimated
07:43PM -37.0081 174.7917 272° West  Level Estimated
07:44PM -37.0081 174.7917 272° West  Level Estimated
07:45PM -37.0081 174.7917 272° West  Level Estimated
07:46PM -37.0081 174.7917 272° West  Level Estimated
07:47PM -37.0081 174.7917 272° West  Level Estimated
07:48PM -37.0081 174.7917 272° West  Level Estimated
07:49PM -37.0081 174.7917 272° West  Level Estimated
07:50PM -37.0081 174.7917 272° West  Level Estimated
07:51PM -37.0081 174.7917 272° West  Level Estimated
07:52PM -37.0081 174.7917 272° West  Level Estimated
07:53PM -37.0081 174.7917 272° West  Level Estimated
07:54PM -37.0081 174.7917 272° West  Level Estimated
07:55PM -37.0081 174.7917 272° West  Level Estimated
07:56PM -37.0081 174.7917 272° West  Level Estimated
07:57PM -37.0081 174.7917 272° West  Level Estimated
07:58PM -37.0081 174.7917 272° West  Level Estimated
07:59PM -37.0081 174.7917 272° West  Level Estimated
08:00PM -37.0081 174.7917 272° West  Level Estimated
08:01PM -37.0081 174.7917 272° West  Level Estimated
08:02PM -37.0081 174.7917 272° West  Level Estimated
08:03PM -37.0081 174.7917 272° West  Level Estimated
08:04PM -37.0081 174.7917 272° West  Level Estimated
08:05PM -37.0081 174.7917 272° West  Level Estimated
08:06PM -37.0081 174.7917 272° West  Level Estimated
08:07PM -37.0081 174.7917 272° West  Level Estimated
08:08PM -37.0081 174.7917 272° West  Level Estimated
08:09PM -37.0081 174.7917 272° West  Level Estimated
08:10PM -37.0081 174.7917 272° West  Level Estimated
08:11PM -37.0081 174.7917 272° West  Level Estimated
08:12PM -37.0081 174.7917 272° West  Level Estimated
08:13PM -37.0081 174.7917 272° West  Level Estimated
08:14PM -37.0081 174.7917 272° West  Level Estimated
08:15PM -37.0081 174.7917 272° West  Level Estimated
08:16PM -37.0081 174.7917 272° West  Level Estimated
08:17PM -37.0081 174.7917 272° West  Level Estimated
08:18PM -37.0081 174.7917 272° West  Level Estimated
08:19PM -37.0081 174.7917 272° West  Level Estimated
08:20PM -37.0081 174.7917 272° West  Level Estimated
08:21PM -37.0081 174.7917 272° West  Level Estimated
08:22PM -37.0081 174.7917 272° West  Level Estimated
08:23PM -37.0081 174.7917 272° West  Level Estimated
08:24PM -37.0081 174.7917 272° West  Level Estimated
08:25PM -37.0081 174.7917 272° West  Level Estimated
08:26PM -37.0081 174.7917 272° West  Level Estimated
08:27PM -37.0081 174.7917 272° West  Level Estimated
08:28PM -37.0081 174.7917 272° West  Level Estimated
08:29PM -37.0081 174.7917 272° West  Level Estimated
08:30PM -37.0081 174.7917 272° West  Level Estimated
08:31PM -37.0081 174.7917 272° West  Level Estimated
08:32PM -37.0081 174.7917 272° West  Level Estimated
08:33PM -37.0081 174.7917 272° West  Level Estimated
08:34PM -37.0081 174.7917 272° West  Level Estimated
08:35PM -37.0081 174.7917 272° West  Level Estimated
08:36PM -37.0081 174.7917 272° West  Level Estimated
08:37PM -37.0081 174.7917 272° West  Level Estimated
08:38PM -37.0081 174.7917 272° West  Level Estimated
08:39PM -37.0081 174.7917 272° West  Level Estimated
08:40PM -37.0081 174.7917 272° West  Level Estimated
08:41PM -37.0081 174.7917 272° West  Level Estimated
08:42PM -37.0081 174.7917 272° West  Level Estimated
08:43PM -37.0081 174.7917 272° West  Level Estimated
08:44PM -37.0081 174.7917 272° West  Level Estimated
08:45PM -37.0081 174.7917 272° West  Level Estimated
08:46PM -37.0081 174.7917 272° West  Level Estimated
08:47PM -37.0081 174.7917 272° West  Level Estimated
08:48PM -37.0081 174.7917 272° West  Level Estimated
08:49PM -37.0081 174.7917 272° West  Level Estimated
08:50PM -37.0081 174.7917 272° West  Level Estimated
08:51PM -37.0081 174.7917 272° West  Level Estimated
08:52PM -37.0081 174.7917 272° West  Level Estimated
08:53PM -37.0081 174.7917 272° West  Level Estimated
08:54PM -37.0081 174.7917 272° West  Level Estimated
08:55PM -37.0081 174.7917 272° West  Level Estimated
08:56PM -37.0081 174.7917 272° West  Level Estimated
08:57PM -37.0081 174.7917 272° West  Level Estimated
08:58PM -37.0081 174.7917 272° West  Level Estimated
08:59PM -37.0081 174.7917 272° West  Level Estimated
09:00PM -37.0081 174.7917 272° West  Level Estimated
09:01PM -37.0081 174.7917 272° West  Level Estimated
09:02PM -37.0081 174.7917 272° West  Level Estimated
09:03PM -37.0081 174.7917 272° West  Level Estimated
09:04PM -37.0081 174.7917 272° West  Level Estimated
09:05PM -37.0081 174.7917 272° West  Level Estimated
09:06PM -37.0081 174.7917 272° West  Level Estimated
09:07PM -37.0081 174.7917 272° West  Level Estimated
09:08PM -37.0081 174.7917 272° West  Level Estimated
09:09PM -37.0081 174.7917 272° West  Level Estimated
09:10PM -37.0081 174.7917 272° West  Level Estimated
09:11PM -37.0081 174.7917 272° West  Level Estimated
09:12PM -37.0081 174.7917 272° West  Level Estimated
09:13PM -37.0081 174.7917 272° West  Level Estimated
09:14PM -37.0081 174.7917 272° West  Level Estimated
09:15PM -37.0081 174.7917 272° West  Level Estimated
09:16PM -37.0081 174.7917 272° West  Level Estimated
09:17PM -37.0081 174.7917 272° West  Level Estimated
09:18PM -37.0081 174.7917 272° West  Level Estimated
09:19PM -37.0081 174.7917 272° West  Level Estimated
09:20PM -37.0081 174.7917 272° West  Level Estimated
09:21PM -37.0081 174.7917 272° West  Level Estimated
09:22PM -37.0081 174.7917 272° West  Level Estimated
09:23PM -37.0081 174.7917 272° West  Level Estimated
09:24PM -37.0081 174.7917 272° West  Level Estimated
09:25PM -37.0081 174.7917 272° West  Level Estimated
09:26PM -37.0081 174.7917 272° West  Level Estimated
09:27PM -37.0081 174.7917 272° West  Level Estimated
09:28PM -37.0081 174.7917 272° West  Level Estimated
09:29PM -37.0081 174.7917 272° West  Level Estimated
09:30PM -37.0081 174.7917 272° West  Level Estimated
09:31PM -37.0081 174.7917 272° West  Level Estimated
09:32PM -37.0081 174.7917 272° West  Level Estimated
09:33PM -37.0081 174.7917 272° West  Level Estimated
09:34PM -37.0081 174.7917 272° West  Level Estimated
09:35PM -37.0081 174.7917 272° West  Level Estimated
09:36PM -37.0081 174.7917 272° West  Level Estimated
09:37PM -37.0081 174.7917 272° West  Level Estimated
09:38PM -37.0081 174.7917 272° West  Level Estimated
09:39PM -37.0081 174.7917 272° West  Level Estimated
09:40PM -37.0081 174.7917 272° West  Level Estimated
09:41PM -37.0081 174.7917 272° West  Level Estimated
09:42PM -37.0081 174.7917 272° West  Level Estimated
09:43PM -37.0081 174.7917 272° West  Level Estimated
09:44PM -37.0081 174.7917 272° West  Level Estimated
09:45PM -37.0081 174.7917 272° West  Level Estimated
09:46PM -37.0081 174.7917 272° West  Level Estimated
09:47PM -37.0081 174.7917 272° West  Level Estimated
09:48PM -37.0081 174.7917 272° West  Level Estimated
09:49PM -37.0081 174.7917 272° West  Level Estimated
09:50PM -37.0081 174.7917 272° West  Level Estimated
09:51PM -37.0081 174.7917 272° West  Level Estimated
09:52PM -37.0081 174.7917 272° West  Level Estimated
09:53PM -37.0081 174.7917 272° West  Level Estimated
09:54PM -37.0081 174.7917 272° West  Level Estimated
09:55PM -37.0081 174.7917 272° West  Level Estimated
09:56PM -37.0081 174.7917 272° West  Level Estimated
09:57PM -37.0081 174.7917 272° West  Level Estimated
09:58PM -37.0081 174.7917 272° West  Level Estimated
09:59PM -37.0081 174.7917 272° West  Level Estimated
10:00PM -37.0081 174.7917 272° West  Level Estimated
10:01PM -37.0081 174.7917 272° West  Level Estimated
10:02PM -37.0081 174.7917 272° West  Level Estimated
10:03PM -37.0081 174.7917 272° West  Level Estimated
10:04PM -37.0081 174.7917 272° West  Level Estimated
10:05PM -37.0081 174.7917 272° West  Level Estimated
10:06PM -37.0081 174.7917 272° West  Level Estimated
10:07PM -37.0081 174.7917 272° West  Level Estimated
10:08PM -37.0081 174.7917 272° West  Level Estimated
10:09PM -37.0081 174.7917 272° West  Level Estimated
10:10PM -37.0081 174.7917 272° West  Level Estimated
10:11PM -37.0081 174.7917 272° West  Level Estimated
10:12PM -37.0081 174.7917 272° West  Level Estimated
10:13PM -37.0081 174.7917 272° West  Level Estimated
10:14PM -37.0081 174.7917 272° West  Level Estimated
10:15PM -37.0081 174.7917 272° West  Level Estimated
10:16PM -37.0081 174.7917 272° West  Level Estimated
10:17PM -37.0081 174.7917 272° West  Level Estimated
10:18PM -37.0081 174.7917 272° West  Level Estimated
10:19PM -37.0081 174.7917 272° West  Level Estimated
10:20PM -37.0081 174.7917 272° West  Level Estimated
10:21PM -37.0081 174.7917 272° West  Level Estimated
10:22PM -37.0081 174.7917 272° West  Level Estimated
10:23PM -37.0081 174.7917 272° West  Level Estimated
10:24PM -37.0081 174.7917 272° West  Level Estimated
10:25PM -37.0081 174.7917 272° West  Level Estimated
10:26PM -37.0081 174.7917 272° West  Level Estimated
10:27PM -37.0081 174.7917 272° West  Level Estimated
10:28PM -37.0081 174.7917 272° West  Level Estimated
10:29PM -37.0081 174.7917 272° West  Level Estimated
10:30PM -37.0081 174.7917 272° West  Level Estimated
10:31PM -37.0081 174.7917 272° West  Level Estimated
10:32PM -37.0081 174.7917 272° West  Level Estimated
10:33PM -37.0081 174.7917 272° West  Level Estimated
10:34PM -37.0081 174.7917 272° West  Level Estimated
10:35PM -37.0081 174.7917 272° West  Level Estimated
10:36PM -37.0081 174.7917 272° West  Level Estimated
10:37PM -37.0081 174.7917 272° West  Level Estimated
10:38PM -37.0081 174.7917 272° West  Level Estimated
10:39PM -37.0081 174.7917 272° West  Level Estimated
10:40PM -37.0081 174.7917 272° West  Level Estimated
10:41PM -37.0081 174.7917 272° West  Level Estimated
10:42PM -37.0081 174.7917 272° West  Level Estimated
10:43PM -37.0081 174.7917 272° West  Level Estimated
10:44PM -37.0081 174.7917 272° West  Level Estimated
10:45PM -37.0081 174.7917 272° West  Level Estimated
10:46PM -37.0081 174.7917 272° West  Level Estimated
10:47PM -37.0081 174.7917 272° West  Level Estimated
10:48PM -37.0081 174.7917 272° West  Level Estimated
10:49PM -37.0081 174.7917 272° West  Level Estimated
10:50PM -37.0081 174.7917 272° West  Level Estimated
10:51PM -37.0081 174.7917 272° West  Level Estimated
10:52PM -37.0081 174.7917 272° West  Level Estimated
10:53PM -37.0081 174.7917 272° West  Level Estimated
10:54PM -37.0081 174.7917 272° West  Level Estimated
10:55PM -37.0081 174.7917 272° West  Level Estimated
10:56PM -37.0081 174.7917 272° West  Level Estimated
10:57PM -37.0081 174.7917 272° West  Level Estimated
10:58PM -37.0081 174.7917 272° West  Level Estimated
10:59PM -37.0081 174.7917 272° West  Level Estimated
11:00PM -37.0081 174.7917 272° West  Level Estimated
11:01PM -37.0081 174.7917 272° West  Level Estimated
11:02PM -37.0081 174.7917 272° West  Level Estimated
11:03PM -37.0081 174.7917 272° West  Level Estimated
11:04PM -37.0081 174.7917 272° West  Level Estimated
11:05PM -37.0081 174.7917 272° West  Level Estimated
11:06PM -37.0081 174.7917 272° West  Level Estimated
11:07PM -37.0081 174.7917 272° West  Level Estimated
11:08PM -37.0081 174.7917 272° West  Level Estimated
11:09PM -37.0081 174.7917 272° West  Level Estimated
11:10PM -37.0081 174.7917 272° West  Level Estimated
11:11PM -37.0081 174.7917 272° West  Level Estimated
11:12PM -37.0081 174.7917 272° West  Level Estimated
11:13PM -37.0081 174.7917 272° West  Level Estimated
11:14PM -37.0081 174.7917 272° West  Level Estimated
11:15PM -37.0081 174.7917 272° West  Level Estimated
11:16PM -37.0081 174.7917 272° West  Level Estimated
11:17PM -37.0081 174.7917 272° West  Level Estimated
11:18PM -37.0081 174.7917 272° West  Level Estimated
11:19PM -37.0081 174.7917 272° West  Level Estimated
11:20PM -37.0081 174.7917 272° West  Level Estimated
11:21PM -37.0081 174.7917 272° West  Level Estimated
11:22PM -37.0081 174.7917 272° West  Level Estimated
11:23PM -37.0081 174.7917 272° West  Level Estimated
11:24PM -37.0081 174.7917 272° West  Level Estimated
11:25PM -37.0081 174.7917 272° West  Level Estimated
11:26PM -37.0081 174.7917 272° West  Level Estimated
11:27PM -37.0081 174.7917 272° West  Level Estimated
11:28PM -37.0081 174.7917 272° West  Level Estimated
11:29PM -37.0081 174.7917 272° West  Level Estimated
11:30PM -37.0081 174.7917 272° West  Level Estimated
11:31PM -37.0081 174.7917 272° West  Level Estimated
11:32PM -37.0081 174.7917 272° West  Level Estimated
11:33PM -37.0081 174.7917 272° West  Level Estimated
11:34PM -37.0081 174.7917 272° West  Level Estimated
11:35PM -37.0081 174.7917 272° West  Level Estimated
11:36PM -37.0081 174.7917 272° West  Level Estimated
11:37PM -37.0081 174.7917 272° West  Level Estimated
11:38PM -37.0081 174.7917 272° West  Level Estimated
11:39PM -37.0081 174.7917 272° West  Level Estimated
11:40PM -37.0081 174.7917 272° West  Level Estimated
11:41PM -37.0081 174.7917 272° West  Level Estimated
11:42PM -37.0081 174.7917 272° West  Level Estimated
11:43PM -37.0081 174.7917 272° West  Level Estimated
11:44PM -37.0081 174.7917 272° West  Level Estimated
11:45PM -37.0081 174.7917 272° West  Level Estimated
11:46PM -37.0081 174.7917 272° West  Level Estimated
11:47PM -37.0081 174.7917 272° West  Level Estimated
11:48PM -37.0081 174.7917 272° West  Level Estimated
11:49PM -37.0081 174.7917 272° West  Level Estimated
11:50PM -37.0081 174.7917 272° West  Level Estimated
11:51PM -37.0081 174.7917 272° West  Level Estimated
11:52PM -37.0081 174.7917 272° West  Level Estimated
11:53PM -37.0081 174.7917 272° West  Level Estimated
11:54PM -37.0081 174.7917 272° West  Level Estimated
11:55PM -37.0081 174.7917 272° West  Level Estimated
11:56PM -37.0081 174.7917 272° West  Level Estimated
11:57PM -37.0081 174.7917 272° West  Level Estimated
11:58PM -37.0081 174.7917 272° West  Level Estimated
11:59PM -37.0081 174.7917 272° West  Level Estimated
12:00AM -37.0081 174.7917 272° West  Level Estimated
12:01AM -37.0081 174.7917 272° West  Level Estimated
12:02AM -37.0081 174.7917 272° West  Level Estimated
12:03AM -37.0081 174.7917 272° West  Level Estimated
12:04AM -37.0081 174.7917 272° West  Level Estimated
12:05AM -37.0081 174.7917 272° West  Level Estimated
12:06AM -37.0081 174.7917 272° West  Level Estimated
12:07AM -37.0081 174.7917 272° West  Level Estimated
12:08AM -37.0081 174.7917 272° West  Level Estimated
12:09AM -37.0081 174.7917 272° West  Level Estimated
12:10AM -37.0081 174.7917 272° West  Level Estimated
12:11AM -37.0081 174.7917 272° West  Level Estimated
12:12AM -37.0081 174.7917 272° West  Level Estimated
12:13AM -37.0081 174.7917 272° West  Level Estimated
12:14AM -37.0081 174.7917 272° West  Level Estimated
12:15AM -37.0081 174.7917 272° West  Level Estimated
12:16AM -37.0081 174.7917 272° West  Level Estimated
12:17AM -37.0081 174.7917 272° West  Level Estimated
12:18AM -37.0081 174.7917 272° West  Level Estimated
12:19AM -37.0081 174.7917 272° West  Level Estimated
12:20AM -37.0081 174.7917 272° West  Level Estimated
12:21AM -37.0081 174.7917 272° West  Level Estimated
12:22AM -37.0081 174.7917 272° West  Level Estimated
12:23AM -37.0081 174.7917 272° West  Level Estimated
12:24AM -37.0081 174.7917 272° West  Level Estimated
12:25AM -37.0081 174.7917 272° West  Level Estimated
12:26AM -37.0081 174.7917 272° West  Level Estimated
12:27AM -37.0081 174.7917 272° West  Level Estimated
12:28AM -37.0081 174.7917 272° West  Level Estimated
12:29AM -37.0081 174.7917 272° West  Level Estimated
12:30AM -37.0081 174.7917 272° West  Level Estimated
12:31AM -37.0081 174.7917 272° West  Level Estimated
12:32AM -37.0081 174.7917 272° West  Level Estimated
12:33AM -37.0081 174.7917 272° West  Level Estimated
12:34AM -37.0081 174.7917 272° West  Level Estimated
12:35AM -37.0081 174.7917 272° West  Level Estimated
12:36AM -37.0081 174.7917 272° West  Level Estimated
12:37AM -37.0081 174.7917 272° West  Level Estimated
12:38AM -37.0081 174.7917 272° West  Level Estimated
12:39AM -37.0081 174.7917 272° West  Level Estimated
12:40AM -37.0081 174.7917 272° West  Level Estimated
12:41AM -37.0081 174.7917 272° West  Level Estimated
12:42AM -37.0081 174.7917 272° West  Level Estimated
12:43AM -37.0081 174.7917 272° West  Level Estimated
12:44AM -37.0081 174.7917 272° West  Level Estimated
12:45AM -37.0081 174.7917 272° West  Level Estimated
12:46AM -37.0081 174.7917 272° West  Level Estimated
12:47AM -37.0081 174.7917 272° West  Level Estimated
12:48AM -37.0081 174.7917 272° West  Level Estimated
12:49AM -37.0081 174.7917 272° West  Level Estimated
12:50AM -37.0081 174.7917 272° West  Level Estimated
12:51AM -37.0081 174.7917 272° West  Level Estimated
12:52AM -37.0081 174.7917 272° West  Level Estimated
12:53AM -37.0081 174.7917 272° West  Level Estimated
12:54AM -37.0081 174.7917 272° West  Level Estimated
12:55AM -37.0081 174.7917 272° West  Level Estimated
12:56AM -37.0081 174.7917 272° West  Level Estimated
12:57AM -37.0081 174.7917 272° West  Level Estimated
12:58AM -37.0081 174.7917 272° West  Level Estimated
12:59AM -37.0081 174.7917 272° West  Level Estimated
01:00AM -37.0081 174.7917 272° West  Level Estimated
01:01AM -37.0081 174.7917 272° West  Level Estimated
01:02AM -37.0081 174.7917 272° West  Level Estimated
01:03AM -37.0081 174.7917 272° West  Level Estimated
01:04AM -37.0081 174.7917 272° West  Level Estimated
01:05AM -37.0081 174.7917 272° West  Level Estimated
01:06AM -37.0081 174.7917 272° West  Level Estimated
01:07AM -37.0081 174.7917 272° West  Level Estimated
01:08AM -37.0081 174.7917 272° West  Level Estimated
01:09AM -37.0081 174.7917 140° Southeast  Level Estimated
01:10AM -37.0081 174.7917 272° West  Level Estimated
01:11AM -37.0081 174.7917 272° West  Level Estimated
01:12AM -37.0081 174.7917 272° West  Level Estimated
01:13AM -37.0081 174.7917 272° West  Level Estimated
01:14AM -37.0081 174.7917 272° West  Level Estimated
01:15AM -37.0081 174.7917 272° West  Level Estimated
01:16AM -37.0081 174.7917 272° West  Level Estimated
01:17AM -37.0081 174.7917 272° West  Level Estimated
01:18AM -37.0081 174.7917 272° West  Level Estimated
01:19AM -37.0081 174.7917 272° West  Level Estimated
01:20AM -37.0081 174.7917 272° West  Level Estimated
01:21AM -37.0081 174.7917 96° East  Level Estimated
01:22AM -37.0081 174.7917 272° West  Level Estimated
01:23AM -37.0081 174.7917 272° West  Level Estimated
01:24AM -37.0081 174.7917 272° West  Level Estimated
01:25AM -37.0081 174.7917 272° West  Level Estimated
01:26AM -37.0081 174.7917 272° West  Level Estimated
01:27AM -37.0081 174.7917 272° West  Level Estimated
01:28AM -37.0081 174.7917 272° West  Level Estimated
01:29AM -37.0081 174.7917 272° West  Level Estimated
01:30AM -37.0081 174.7917 272° West  Level Estimated
01:31AM -37.0081 174.7917 272° West  Level Estimated
01:32AM -37.0081 174.7917 272° West  Level Estimated
01:33AM -37.0081 174.7917 272° West  Level Estimated
01:34AM -37.0081 174.7917 272° West  Level Estimated
01:35AM -37.0081 174.7917 272° West  Level Estimated
01:36AM -37.0081 174.7917 272° West  Level Estimated
01:37AM -37.0081 174.7917 272° West  Level Estimated
01:38AM -37.0081 174.7917 272° West  Level Estimated
01:39AM -37.0081 174.7917 272° West  Level Estimated
01:40AM -37.0081 174.7917 272° West  Level Estimated
01:41AM -37.0081 174.7917 272° West  Level Estimated
01:42AM -37.0081 174.7917 272° West  Level Estimated
01:43AM -37.0081 174.7917 272° West  Level Estimated
01:44AM -37.0081 174.7917 272° West  Level Estimated
01:45AM -37.0081 174.7917 272° West  Level Estimated
01:46AM -37.0081 174.7917 109° East  Level Estimated
01:47AM -37.0081 174.7917 271° West  Level Estimated
01:48AM -37.0081 174.7917 271° West  Level Estimated
01:49AM -37.0081 174.7917 271° West  Level Estimated
01:50AM -37.0081 174.7917 271° West  Level Estimated
01:51AM -37.0081 174.7917 271° West  Level Estimated
01:52AM -37.0081 174.7917 271° West  Level Estimated
01:53AM -37.0081 174.7917 271° West  Level Estimated
01:54AM -37.0081 174.7917 271° West  Level Estimated
01:55AM -37.0081 174.7917 271° West  Level Estimated
01:56AM -37.0081 174.7917 271° West  Level Estimated
01:57AM -37.0081 174.7917 271° West  Level Estimated
01:58AM -37.0081 174.7917 271° West  Level Estimated
01:59AM -37.0081 174.7917 271° West  Level Estimated
02:00AM -37.0081 174.7917 271° West  Level Estimated
02:01AM -37.0081 174.7917 271° West  Level Estimated
02:02AM -37.0081 174.7917 271° West  Level Estimated
02:03AM -37.0081 174.7917 271° West  Level Estimated
02:04AM -37.0081 174.7917 271° West  Level Estimated
02:05AM -37.0081 174.7917 271° West  Level Estimated
02:06AM -37.0081 174.7917 271° West  Level Estimated
02:07AM -37.0081 174.7917 271° West  Level Estimated
02:08AM -37.0081 174.7917 271° West  Level Estimated
02:09AM -37.0081 174.7917 271° West  Level Estimated
02:10AM -37.0081 174.7917 271° West  Level Estimated
02:11AM -37.0081 174.7917 271° West  Level Estimated
02:12AM -37.0081 174.7917 271° West  Level Estimated
02:13AM -37.0081 174.7917 271° West  Level Estimated
02:14AM -37.0081 174.7917 271° West  Level Estimated
02:15AM -37.0081 174.7917 271° West  Level Estimated
02:16AM -37.0081 174.7917 271° West  Level Estimated
02:17AM -37.0081 174.7917 271° West  Level Estimated
02:18AM -37.0081 174.7917 271° West  Level Estimated
02:19AM -37.0081 174.7917 271° West  Level Estimated
02:20AM -37.0081 174.7917 271° West  Level Estimated
02:21AM -37.0081 174.7917 271° West  Level Estimated
02:22AM -37.0081 174.7917 271° West  Level Estimated
02:23AM -37.0081 174.7917 271° West  Level Estimated
02:24AM -37.0081 174.7917 271° West  Level Estimated
02:25AM -37.0081 174.7917 271° West  Level Estimated
02:26AM -37.0081 174.7917 271° West  Level Estimated
02:27AM -37.0081 174.7917 271° West  Level Estimated
02:28AM -37.0081 174.7917 271° West  Level Estimated
02:29AM -37.0081 174.7917 271° West  Level Estimated
02:30AM -37.0081 174.7917 271° West  Level Estimated
02:31AM -37.0081 174.7917 271° West  Level Estimated
02:32AM -37.0081 174.7917 271° West  Level Estimated
02:33AM -37.0081 174.7917 271° West  Level Estimated
02:34AM -37.0081 174.7917 271° West  Level Estimated
02:35AM -37.0081 174.7917 271° West  Level Estimated
02:36AM -37.0081 174.7917 271° West  Level Estimated
02:37AM -37.0081 174.7917 271° West  Level Estimated
02:38AM -37.0081 174.7917 271° West  Level Estimated
02:39AM -37.0081 174.7917 271° West  Level Estimated
02:40AM -37.0081 174.7917 271° West  Level Estimated
02:41AM -37.0081 174.7917 271° West  Level Estimated
02:42AM -37.0081 174.7917 271° West  Level Estimated
02:43AM -37.0081 174.7917 271° West  Level Estimated
02:44AM -37.0081 174.7917 271° West  Level Estimated
02:45AM -37.0081 174.7917 271° West  Level Estimated
02:46AM -37.0081 174.7917 271° West  Level Estimated
02:47AM -37.0081 174.7917 271° West  Level Estimated
02:48AM -37.0081 174.7917 271° West  Level Estimated
02:49AM -37.0081 174.7917 271° West  Level Estimated
02:50AM -37.0081 174.7917 271° West  Level Estimated
02:51AM -37.0081 174.7917 271° West  Level Estimated
02:52AM -37.0081 174.7917 271° West  Level Estimated
02:53AM -37.0081 174.7917 271° West  Level Estimated
02:54AM -37.0081 174.7917 271° West  Level Estimated
02:55AM -37.0081 174.7917 271° West  Level Estimated
02:56AM -37.0081 174.7917 271° West  Level Estimated
02:57AM -37.0081 174.7917 271° West  Level Estimated
02:58AM -37.0081 174.7917 271° West  Level Estimated
02:59AM -37.0081 174.7917 271° West  Level Estimated
03:00AM -37.0081 174.7917 271° West  Level Estimated
03:01AM -37.0081 174.7917 271° West  Level Estimated
03:02AM -37.0081 174.7917 271° West  Level Estimated
03:03AM -37.0081 174.7917 271° West  Level Estimated
03:04AM -37.0081 174.7917 271° West  Level Estimated
03:05AM -37.0081 174.7917 271° West  Level Estimated
03:06AM -37.0081 174.7917 271° West  Level Estimated
03:07AM -37.0081 174.7917 271° West  Level Estimated
03:08AM -37.0081 174.7917 271° West  Level Estimated
03:09AM -37.0081 174.7917 271° West  Level Estimated
03:10AM -37.0081 174.7917 271° West  Level Estimated
03:11AM -37.0081 174.7917 271° West  Level Estimated
03:12AM -37.0081 174.7917 271° West  Level Estimated
03:13AM -37.0081 174.7917 271° West  Level Estimated
03:14AM -37.0081 174.7917 271° West  Level Estimated
03:15AM -37.0081 174.7917 271° West  Level Estimated
03:16AM -37.0081 174.7917 271° West  Level Estimated
03:17AM -37.0081 174.7917 271° West  Level Estimated
03:18AM -37.0081 174.7917 271° West  Level Estimated
03:19AM -37.0081 174.7917 271° West  Level Estimated
03:20AM -37.0081 174.7917 271° West  Level Estimated
03:21AM -37.0081 174.7917 271° West  Level Estimated
03:22AM -37.0081 174.7917 271° West  Level Estimated
03:23AM -37.0081 174.7917 271° West  Level Estimated
03:24AM -37.0081 174.7917 271° West  Level Estimated
03:25AM -37.0081 174.7917 271° West  Level Estimated
03:26AM -37.0081 174.7917 271° West  Level Estimated
03:27AM -37.0081 174.7917 271° West  Level Estimated
03:28AM -37.0081 174.7917 271° West  Level Estimated
03:29AM -37.0081 174.7917 271° West  Level Estimated
03:30AM -37.0081 174.7917 271° West  Level Estimated
03:31AM -37.0081 174.7917 271° West  Level Estimated
03:32AM -37.0081 174.7917 271° West  Level Estimated
03:33AM -37.0081 174.7917 271° West  Level Estimated
03:34AM -37.0081 174.7917 271° West  Level Estimated
03:35AM -37.0081 174.7917 271° West  Level Estimated
03:36AM -37.0081 174.7917 271° West  Level Estimated
03:37AM -37.0081 174.7917 271° West  Level Estimated
03:38AM -37.0081 174.7917 271° West  Level Estimated
03:39AM -37.0081 174.7917 271° West  Level Estimated
03:40AM -37.0081 174.7917 271° West  Level Estimated
03:41AM -37.0081 174.7917 271° West  Level Estimated
03:42AM -37.0081 174.7917 271° West  Level Estimated
03:43AM -37.0081 174.7917 108° East  Level Estimated
03:44AM -37.0081 174.7917 270° West  Level Estimated
03:45AM -37.0081 174.7917 270° West  Level Estimated
03:46AM -37.0081 174.7917 270° West  Level Estimated
03:47AM -37.0081 174.7917 270° West  Level Estimated
03:48AM -37.0081 174.7917 270° West  Level Estimated
03:49AM -37.0081 174.7917 270° West  Level Estimated
03:50AM -37.0081 174.7917 270° West  Level Estimated
03:51AM -37.0081 174.7917 270° West  Level Estimated
03:52AM -37.0081 174.7917 270° West  Level Estimated
03:53AM -37.0081 174.7917 270° West  Level Estimated
03:54AM -37.0081 174.7917 270° West  Level Estimated
03:55AM -37.0081 174.7917 270° West  Level Estimated
03:56AM -37.0081 174.7917 270° West  Level Estimated
03:57AM -37.0081 174.7917 270° West  Level Estimated
03:58AM -37.0081 174.7917 270° West  Level Estimated
03:59AM -37.0081 174.7917 270° West  Level Estimated
04:00AM -37.0081 174.7917 270° West  Level Estimated
04:01AM -37.0081 174.7917 270° West  Level Estimated
04:02AM -37.0081 174.7917 270° West  Level Estimated
04:03AM -37.0081 174.7917 270° West  Level Estimated
04:04AM -37.0081 174.7917 270° West  Level Estimated
04:05AM -37.0081 174.7917 270° West  Level Estimated
04:06AM -37.0081 174.7917 270° West  Level Estimated
04:07AM -37.0081 174.7917 270° West  Level Estimated
04:08AM -37.0081 174.7917 270° West  Level Estimated
04:09AM -37.0081 174.7917 270° West  Level Estimated
04:10AM -37.0081 174.7917 270° West  Level Estimated
04:11AM -37.0081 174.7917 270° West  Level Estimated
04:12AM -37.0081 174.7917 270° West  Level Estimated
04:13AM -37.0081 174.7917 270° West  Level Estimated
04:14AM -37.0081 174.7917 270° West  Level Estimated
04:15AM -37.0081 174.7917 270° West  Level Estimated
04:16AM -37.0081 174.7917 270° West  Level Estimated
04:17AM -37.0081 174.7917 270° West  Level Estimated
04:18AM -37.0081 174.7917 270° West  Level Estimated
04:19AM -37.0081 174.7917 270° West  Level Estimated
04:20AM -37.0081 174.7917 270° West  Level Estimated
04:21AM -37.0081 174.7917 270° West  Level Estimated
04:22AM -37.0081 174.7917 270° West  Level Estimated
04:23AM -37.0081 174.7917 270° West  Level Estimated
04:24AM -37.0081 174.7917 270° West  Level Estimated
04:25AM -37.0081 174.7917 270° West  Level Estimated
04:26AM -37.0081 174.7917 270° West  Level Estimated
04:27AM -37.0081 174.7917 270° West  Level Estimated
04:28AM -37.0081 174.7917 270° West  Level Estimated
04:29AM -37.0081 174.7917 270° West  Level Estimated
04:30AM -37.0081 174.7917 270° West  Level Estimated
04:31AM -37.0081 174.7917 270° West  Level Estimated
04:32AM -37.0081 174.7917 270° West  Level Estimated
04:33AM -37.0081 174.7917 270° West  Level Estimated
04:34AM -37.0081 174.7917 270° West  Level Estimated
04:35AM -37.0081 174.7917 270° West  Level Estimated
04:36AM -37.0081 174.7917 270° West  Level Estimated
04:37AM -37.0081 174.7917 270° West  Level Estimated
04:38AM -37.0081 174.7917 270° West  Level Estimated
04:39AM -37.0081 174.7917 270° West  Level Estimated
04:40AM -37.0081 174.7917 270° West  Level Estimated
04:41AM -37.0081 174.7917 270° West  Level Estimated
04:42AM -37.0081 174.7917 270° West  Level Estimated
04:43AM -37.0081 174.7917 270° West  Level Estimated
04:44AM -37.0081 174.7917 270° West  Level Estimated
04:45AM -37.0081 174.7917 270° West  Level Estimated
04:46AM -37.0081 174.7917 270° West  Level Estimated
04:47AM -37.0081 174.7917 270° West  Level Estimated
04:48AM -37.0081 174.7917 270° West  Level Estimated
04:49AM -37.0081 174.7917 270° West  Level Estimated
04:50AM -37.0081 174.7917 270° West  Level Estimated
04:51AM -37.0081 174.7917 270° West  Level Estimated
04:52AM -37.0081 174.7917 270° West  Level Estimated
04:53AM -37.0081 174.7917 270° West  Level Estimated
04:54AM -37.0081 174.7917 270° West  Level Estimated
04:55AM -37.0081 174.7917 270° West  Level Estimated
04:56AM -37.0081 174.7917 270° West  Level Estimated
04:57AM -37.0081 174.7917 270° West  Level Estimated
04:58AM -37.0081 174.7917 270° West  Level Estimated
04:59AM -37.0081 174.7917 270° West  Level Estimated
05:00AM -37.0081 174.7917 270° West  Level Estimated
05:01AM -37.0081 174.7917 270° West  Level Estimated
05:02AM -37.0081 174.7917 270° West  Level Estimated
05:03AM -37.0081 174.7917 270° West  Level Estimated
05:04AM -37.0081 174.7917 270° West  Level Estimated
05:05AM -37.0081 174.7917 270° West  Level Estimated
05:06AM -37.0081 174.7917 270° West  Level Estimated
05:07AM -37.0081 174.7917 270° West  Level Estimated
05:08AM -37.0081 174.7917 270° West  Level Estimated
05:09AM -37.0081 174.7917 270° West  Level Estimated
05:10AM -37.0081 174.7917 270° West  Level Estimated
05:11AM -37.0081 174.7917 270° West  Level Estimated
05:12AM -37.0081 174.7917 270° West  Level Estimated
05:13AM -37.0081 174.7917 270° West  Level Estimated
05:14AM -37.0081 174.7917 270° West  Level Estimated
05:15AM -37.0081 174.7917 270° West  Level Estimated
05:16AM -37.0081 174.7917 270° West  Level Estimated
05:17AM -37.0081 174.7917 270° West  Level Estimated
05:18AM -37.0081 174.7917 270° West  Level Estimated
05:19AM -37.0081 174.7917 270° West  Level Estimated
05:20AM -37.0081 174.7917 270° West  Level Estimated
05:21AM -37.0081 174.7917 270° West  Level Estimated
05:22AM -37.0081 174.7917 270° West  Level Estimated
05:23AM -37.0081 174.7917 270° West  Level Estimated
05:24AM -37.0081 174.7917 270° West  Level Estimated
05:25AM -37.0081 174.7917 270° West  Level Estimated
05:26AM -37.0081 174.7917 270° West  Level Estimated
05:27AM -37.0081 174.7917 270° West  Level Estimated
05:28AM -37.0081 174.7917 270° West  Level Estimated
05:29AM -37.0081 174.7917 270° West  Level Estimated
05:30AM -37.0081 174.7917 270° West  Level Estimated
05:31AM -37.0081 174.7917 270° West  Level Estimated
05:32AM -37.0081 174.7917 270° West  Level Estimated
05:33AM -37.0081 174.7917 270° West  Level Estimated
05:34AM -37.0081 174.7917 270° West  Level Estimated
05:35AM -37.0081 174.7917 270° West  Level Estimated
05:36AM -37.0081 174.7917 270° West  Level Estimated
05:37AM -37.0081 174.7917 270° West  Level Estimated
05:38AM -37.0081 174.7917 270° West  Level Estimated
05:39AM -37.0081 174.7917 270° West  Level Estimated
05:40AM -37.0081 174.7917 270° West  Level Estimated
05:41AM -37.0081 174.7917 270° West  Level Estimated
05:42AM -37.0081 174.7917 108° East  Level Estimated
05:43AM -37.0081 174.7917 108° East  Level Estimated
05:44AM -37.0081 174.7917 108° East  Level Estimated
05:45AM -37.0081 174.7917 108° East  Level Estimated
05:46AM -37.0081 174.7917 108° East  Level Estimated
05:47AM -37.0081 174.7917 108° East  Level Estimated
05:48AM -37.0081 174.7917 108° East  Level Estimated
05:49AM -37.0081 174.7917 108° East  Level Estimated
05:50AM -37.0081 174.7917 108° East  Level Estimated
05:51AM -37.0081 174.7917 108° East  Level Estimated
05:52AM -37.0081 174.7917 108° East  Level Estimated
05:53AM -37.0081 174.7917 108° East  Level Estimated
05:54AM -37.0081 174.7917 108° East  Level Estimated
05:55AM -37.0081 174.7917 108° East  Level Estimated
05:56AM -37.0081 174.7917 108° East  Level Estimated
05:57AM -37.0081 174.7917 108° East  Level Estimated
05:58AM -37.0081 174.7917 108° East  Level Estimated
05:59AM -37.0081 174.7917 108° East  Level Estimated
06:00AM -37.0081 174.7917 108° East  Level Estimated
06:01AM -37.0081 174.7917 108° East  Level Estimated
06:02AM -37.0081 174.7917 108° East  Level Estimated
06:03AM -37.0081 174.7917 108° East  Level Estimated
06:04AM -37.0081 174.7917 108° East  Level Estimated
06:05AM -37.0081 174.7917 108° East  Level Estimated
06:06AM -37.0081 174.7917 108° East  Level Estimated
06:07AM -37.0081 174.7917 108° East  Level Estimated
06:08AM -37.0081 174.7917 108° East  Level Estimated
06:09AM -37.0081 174.7917 108° East  Level Estimated
06:10AM -37.0081 174.7917 108° East  Level Estimated
06:11AM -37.0081 174.7917 108° East  Level Estimated
06:12AM -37.0081 174.7917 108° East  Level Estimated
06:13AM -37.0081 174.7917 108° East  Level Estimated
06:14AM -37.0081 174.7917 108° East  Level Estimated
06:15AM -37.0081 174.7917 108° East  Level Estimated
06:16AM -37.0081 174.7917 108° East  Level Estimated
06:17AM -37.0081 174.7917 108° East  Level Estimated
06:18AM -37.0081 174.7917 108° East  Level Estimated
06:19AM -37.0081 174.7917 108° East  Level Estimated
06:20AM -37.0081 174.7917 108° East  Level Estimated
06:21AM -37.0081 174.7917 108° East  Level Estimated
06:22AM -37.0081 174.7917 108° East  Level Estimated
06:23AM -37.0081 174.7917 108° East  Level Estimated
06:24AM -37.0081 174.7917 108° East  Level Estimated
06:25AM -37.0081 174.7917 108° East  Level Estimated
06:26AM -37.0081 174.7917 108° East  Level Estimated
06:27AM -37.0081 174.7917 108° East  Level Estimated
06:28AM -37.0081 174.7917 108° East  Level Estimated
06:29AM -37.0081 174.7917 108° East  Level Estimated
06:30AM -37.0081 174.7917 108° East  Level Estimated
06:31AM -37.0081 174.7917 108° East  Level Estimated
06:32AM -37.0081 174.7917 108° East  Level Estimated
06:33AM -37.0081 174.7917 108° East  Level Estimated
06:34AM -37.0081 174.7917 108° East  Level Estimated
06:35AM -37.0081 174.7917 108° East  Level Estimated
06:36AM -37.0081 174.7917 108° East  Level Estimated
06:37AM -37.0081 174.7917 108° East  Level Estimated
06:38AM -37.0081 174.7917 108° East  Level Estimated
06:39AM -37.0081 174.7917 108° East  Level Estimated
06:40AM -37.0081 174.7917 108° East  Level Estimated
06:41AM -37.0081 174.7917 108° East  Level Estimated
06:42AM -37.0081 174.7917 108° East  Level Estimated
06:43AM -37.0081 174.7917 108° East  Level Estimated
06:44AM -37.0081 174.7917 108° East  Level Estimated
06:45AM -37.0081 174.7917 108° East  Level Estimated
06:46AM -37.0081 174.7917 108° East  Level Estimated
06:47AM -37.0081 174.7917 108° East  Level Estimated
06:48AM -37.0081 174.7917 108° East  Level Estimated
06:49AM -37.0081 174.7917 108° East  Level Estimated
06:50AM -37.0081 174.7917 108° East  Level Estimated
06:51AM -37.0081 174.7917 108° East  Level Estimated
06:52AM -37.0081 174.7917 108° East  Level Estimated
06:53AM -37.0081 174.7917 108° East  Level Estimated
06:54AM -37.0081 174.7917 108° East  Level Estimated
06:55AM -37.0081 174.7917 108° East  Level Estimated
06:56AM -37.0081 174.7917 108° East  Level Estimated
06:57AM -37.0081 174.7917 108° East  Level Estimated
06:58AM -37.0081 174.7917 108° East  Level Estimated
06:59AM -37.0081 174.7917 108° East  Level Estimated
07:00AM -37.0081 174.7917 108° East  Level Estimated
07:01AM -37.0081 174.7917 108° East  Level Estimated
07:02AM -37.0081 174.7917 108° East  Level Estimated
07:03AM -37.0081 174.7917 108° East  Level Estimated
07:04AM -37.0081 174.7917 108° East  Level Estimated
07:05AM -37.0081 174.7917 108° East  Level Estimated
07:06AM -37.0081 174.7917 108° East  Level Estimated
07:07AM -37.0081 174.7917 108° East  Level Estimated
07:08AM -37.0081 174.7917 108° East  Level Estimated
07:09AM -37.0081 174.7917 108° East  Level Estimated
07:10AM -37.0081 174.7917 108° East  Level Estimated
07:11AM -37.0081 174.7917 108° East  Level Estimated
07:12AM -37.0081 174.7917 108° East  Level Estimated
07:13AM -37.0081 174.7917 108° East  Level Estimated
07:14AM -37.0081 174.7917 108° East  Level Estimated
07:15AM -37.0081 174.7917 108° East  Level Estimated
07:16AM -37.0081 174.7917 108° East  Level Estimated
07:17AM -37.0081 174.7917 108° East  Level Estimated
07:18AM -37.0081 174.7917 108° East  Level Estimated
07:19AM -37.0081 174.7917 108° East  Level Estimated
07:20AM -37.0081 174.7917 108° East  Level Estimated
07:21AM -37.0081 174.7917 108° East  Level Estimated
07:22AM -37.0081 174.7917 108° East  Level Estimated
07:23AM -37.0081 174.7917 108° East  Level Estimated
07:24AM -37.0081 174.7917 108° East  Level Estimated
07:25AM -37.0081 174.7917 108° East  Level Estimated
07:26AM -37.0081 174.7917 108° East  Level Estimated
07:27AM -37.0081 174.7917 108° East  Level Estimated
07:28AM -37.0081 174.7917 108° East  Level Estimated
07:29AM -37.0081 174.7917 108° East  Level Estimated
07:30AM -37.0081 174.7917 108° East  Level Estimated
07:31AM -37.0081 174.7917 108° East  Level Estimated
07:32AM -37.0081 174.7917 108° East  Level Estimated
07:33AM -37.0081 174.7917 108° East  Level Estimated
07:34AM -37.0081 174.7917 108° East  Level Estimated
07:35AM -37.0081 174.7917 108° East  Level Estimated
07:36AM -37.0081 174.7917 108° East  Level Estimated
07:37AM -37.0081 174.7917 108° East  Level Estimated
07:38AM -37.0081 174.7917 108° East  Level Estimated
07:39AM -37.0081 174.7917 108° East  Level Estimated
07:40AM -37.0081 174.7917 108° East  Level Estimated
07:41AM -37.0081 174.7917 108° East  Level Estimated
07:42AM -37.0081 174.7917 108° East  Level Estimated
07:43AM -37.0081 174.7917 108° East  Level Estimated
07:44AM -37.0081 174.7917 108° East  Level Estimated
07:45AM -37.0081 174.7917 108° East  Level Estimated
07:46AM -37.0081 174.7917 108° East  Level Estimated
07:47AM -37.0081 174.7917 108° East  Level Estimated
07:48AM -37.0081 174.7917 108° East  Level Estimated
07:49AM -37.0081 174.7917 108° East  Level Estimated
07:50AM -37.0081 174.7917 108° East  Level Estimated
07:51AM -37.0081 174.7917 108° East  Level Estimated
07:52AM -37.0081 174.7917 108° East  Level Estimated
07:53AM -37.0081 174.7917 108° East  Level Estimated
07:54AM -37.0081 174.7917 108° East  Level Estimated
07:55AM -37.0081 174.7917 108° East  Level Estimated
07:56AM -37.0081 174.7917 108° East  Level Estimated
07:57AM -37.0081 174.7917 108° East  Level Estimated
07:58AM -37.0081 174.7917 108° East  Level Estimated
07:59AM -37.0081 174.7917 108° East  Level Estimated
08:00AM -37.0081 174.7917 108° East  Level Estimated
08:01AM -37.0081 174.7917 108° East  Level Estimated
08:02AM -37.0081 174.7917 108° East  Level Estimated
08:03AM -37.0081 174.7917 108° East  Level Estimated
08:04AM -37.0081 174.7917 108° East  Level Estimated
08:05AM -37.0081 174.7917 108° East  Level Estimated
08:06AM -37.0081 174.7917 108° East  Level Estimated
08:07AM -37.0081 174.7917 108° East  Level Estimated
08:08AM -37.0081 174.7917 108° East  Level Estimated
08:09AM -37.0081 174.7917 108° East  Level Estimated
08:10AM -37.0081 174.7917 108° East  Level Estimated
08:11AM -37.0081 174.7917 108° East  Level Estimated
08:12AM -37.0081 174.7917 108° East  Level Estimated
08:13AM -37.0081 174.7917 108° East  Level Estimated
08:14AM -37.0081 174.7917 108° East  Level Estimated
08:15AM -37.0081 174.7917 108° East  Level Estimated
08:16AM -37.0081 174.7917 108° East  Level Estimated
08:17AM -37.0081 174.7917 108° East  Level Estimated
08:18AM -37.0081 174.7917 108° East  Level Estimated
08:19AM -37.0081 174.7917 108° East  Level Estimated
08:20AM -37.0081 174.7917 108° East  Level Estimated
08:21AM -37.0081 174.7917 108° East  Level Estimated
08:22AM -37.0081 174.7917 108° East  Level Estimated
08:23AM -37.0081 174.7917 108° East  Level Estimated
08:24AM -37.0081 174.7917 108° East  Level Estimated
08:25AM -37.0081 174.7917 108° East  Level Estimated
08:26AM -37.0081 174.7917 108° East  Level Estimated
08:27AM -37.0081 174.7917 108° East  Level Estimated
08:28AM -37.0081 174.7917 108° East  Level Estimated
08:29AM -37.0081 174.7917 108° East  Level Estimated
08:30AM -37.0081 174.7917 108° East  Level Estimated
08:31AM -37.0081 174.7917 108° East  Level Estimated
08:32AM -37.0081 174.7917 108° East  Level Estimated